<?xml version="1.0" encoding="UTF-8" standalone="no" ?>
<gpx xmlns="http://www.topografix.com/GPX/1/1" xmlns:xsi="http://www.w3.org/2001/XMLSchema-instance" xsi:schemaLocation="http://www.topografix.com/GPX/1/1 http://www.topografix.com/GPX/1/1/gpx.xsd" version="1.1" creator="VisuGPX - https://www.visugpx.com">
  <metadata>
    <name>Vercoooors</name>
  </metadata>
  <trk>
    <name><![CDATA[Vercors]]></name>
    <extensions>
      <line xmlns="http://www.topografix.com/GPX/gpx_style/0/2">
        <color>0000FF</color>
        <width>4</width>
      </line>
    </extensions>
    <trkseg>
      <trkpt lat="45.12914" lon="5.58514">
        <ele>1007</ele>
        <time>2022-07-08T11:36:00.000Z</time>
      </trkpt>
      <trkpt lat="45.12923" lon="5.58484">
        <ele>1006.9</ele>
        <time>2022-07-08T11:36:05.131Z</time>
      </trkpt>
      <trkpt lat="45.12947" lon="5.58422">
        <ele>1005.9</ele>
        <time>2022-07-08T11:36:12.406Z</time>
      </trkpt>
      <trkpt lat="45.12968" lon="5.58372">
        <ele>1004.2</ele>
        <time>2022-07-08T11:36:17.192Z</time>
      </trkpt>
      <trkpt lat="45.13008" lon="5.58253">
        <ele>1002.4</ele>
        <time>2022-07-08T11:36:30.860Z</time>
      </trkpt>
      <trkpt lat="45.13026" lon="5.58223">
        <ele>1002.9</ele>
        <time>2022-07-08T11:36:38.777Z</time>
      </trkpt>
      <trkpt lat="45.13059" lon="5.582">
        <ele>1002.2</ele>
        <time>2022-07-08T11:36:44.203Z</time>
      </trkpt>
      <trkpt lat="45.13071" lon="5.58156">
        <ele>1002</ele>
        <time>2022-07-08T11:36:51.455Z</time>
      </trkpt>
      <trkpt lat="45.13057" lon="5.581">
        <ele>1002.5</ele>
        <time>2022-07-08T11:37:02.653Z</time>
      </trkpt>
      <trkpt lat="45.13015" lon="5.58068">
        <ele>1002.1</ele>
        <time>2022-07-08T11:37:10.705Z</time>
      </trkpt>
      <trkpt lat="45.12973" lon="5.58033">
        <ele>1001.8</ele>
        <time>2022-07-08T11:37:21.300Z</time>
      </trkpt>
      <trkpt lat="45.12904" lon="5.5798">
        <ele>1002.1</ele>
        <time>2022-07-08T11:37:40.653Z</time>
      </trkpt>
      <trkpt lat="45.1283" lon="5.5792">
        <ele>1001</ele>
        <time>2022-07-08T11:37:54.218Z</time>
      </trkpt>
      <trkpt lat="45.12797" lon="5.57893">
        <ele>1001</ele>
        <time>2022-07-08T11:38:03.286Z</time>
      </trkpt>
      <trkpt lat="45.12762" lon="5.57855">
        <ele>1001.2</ele>
        <time>2022-07-08T11:38:14.232Z</time>
      </trkpt>
      <trkpt lat="45.12767" lon="5.57814">
        <ele>1004</ele>
        <time>2022-07-08T11:38:31.617Z</time>
      </trkpt>
      <trkpt lat="45.12769" lon="5.5779">
        <ele>1006.6</ele>
        <time>2022-07-08T11:38:47.267Z</time>
      </trkpt>
      <trkpt lat="45.12768" lon="5.57775">
        <ele>1008</ele>
        <time>2022-07-08T11:38:56.786Z</time>
      </trkpt>
      <trkpt lat="45.12769" lon="5.5776">
        <ele>1010.3</ele>
        <time>2022-07-08T11:39:06.543Z</time>
      </trkpt>
      <trkpt lat="45.12766" lon="5.57742">
        <ele>1012.3</ele>
        <time>2022-07-08T11:39:18.521Z</time>
      </trkpt>
      <trkpt lat="45.12761" lon="5.57726">
        <ele>1013.5</ele>
        <time>2022-07-08T11:39:25.958Z</time>
      </trkpt>
      <trkpt lat="45.12754" lon="5.57711">
        <ele>1014</ele>
        <time>2022-07-08T11:39:30.683Z</time>
      </trkpt>
      <trkpt lat="45.12752" lon="5.57693">
        <ele>1015.9</ele>
        <time>2022-07-08T11:39:42.484Z</time>
      </trkpt>
      <trkpt lat="45.1275" lon="5.57674">
        <ele>1020.2</ele>
        <time>2022-07-08T11:39:54.925Z</time>
      </trkpt>
      <trkpt lat="45.1274" lon="5.57665">
        <ele>1020.6</ele>
        <time>2022-07-08T11:39:59.006Z</time>
      </trkpt>
      <trkpt lat="45.12733" lon="5.57652">
        <ele>1022.3</ele>
        <time>2022-07-08T11:40:09.597Z</time>
      </trkpt>
      <trkpt lat="45.12723" lon="5.57642">
        <ele>1022.5</ele>
        <time>2022-07-08T11:40:13.022Z</time>
      </trkpt>
      <trkpt lat="45.12715" lon="5.57632">
        <ele>1023.7</ele>
        <time>2022-07-08T11:40:20.538Z</time>
      </trkpt>
      <trkpt lat="45.12706" lon="5.57622">
        <ele>1024.9</ele>
        <time>2022-07-08T11:40:27.973Z</time>
      </trkpt>
      <trkpt lat="45.12697" lon="5.57613">
        <ele>1025.9</ele>
        <time>2022-07-08T11:40:34.228Z</time>
      </trkpt>
      <trkpt lat="45.12687" lon="5.57605">
        <ele>1026.2</ele>
        <time>2022-07-08T11:40:37.820Z</time>
      </trkpt>
      <trkpt lat="45.12678" lon="5.57598">
        <ele>1026.3</ele>
        <time>2022-07-08T11:40:40.502Z</time>
      </trkpt>
      <trkpt lat="45.12669" lon="5.57588">
        <ele>1027.2</ele>
        <time>2022-07-08T11:40:46.363Z</time>
      </trkpt>
      <trkpt lat="45.12661" lon="5.57575">
        <ele>1028.6</ele>
        <time>2022-07-08T11:40:55.187Z</time>
      </trkpt>
      <trkpt lat="45.12654" lon="5.57561">
        <ele>1030.5</ele>
        <time>2022-07-08T11:41:06.300Z</time>
      </trkpt>
      <trkpt lat="45.12647" lon="5.57549">
        <ele>1032.1</ele>
        <time>2022-07-08T11:41:16.383Z</time>
      </trkpt>
      <trkpt lat="45.1264" lon="5.57537">
        <ele>1033.9</ele>
        <time>2022-07-08T11:41:26.467Z</time>
      </trkpt>
      <trkpt lat="45.12631" lon="5.57522">
        <ele>1035.8</ele>
        <time>2022-07-08T11:41:39.219Z</time>
      </trkpt>
      <trkpt lat="45.12623" lon="5.57511">
        <ele>1036.8</ele>
        <time>2022-07-08T11:41:45.488Z</time>
      </trkpt>
      <trkpt lat="45.12615" lon="5.57498">
        <ele>1038.4</ele>
        <time>2022-07-08T11:41:56.350Z</time>
      </trkpt>
      <trkpt lat="45.12607" lon="5.57487">
        <ele>1039.9</ele>
        <time>2022-07-08T11:42:06.581Z</time>
      </trkpt>
      <trkpt lat="45.12598" lon="5.57475">
        <ele>1041.4</ele>
        <time>2022-07-08T11:42:16.242Z</time>
      </trkpt>
      <trkpt lat="45.1259" lon="5.57464">
        <ele>1042.9</ele>
        <time>2022-07-08T11:42:26.473Z</time>
      </trkpt>
      <trkpt lat="45.12581" lon="5.57453">
        <ele>1044</ele>
        <time>2022-07-08T11:42:33.330Z</time>
      </trkpt>
      <trkpt lat="45.12575" lon="5.57438">
        <ele>1046.8</ele>
        <time>2022-07-08T11:42:44.497Z</time>
      </trkpt>
      <trkpt lat="45.12569" lon="5.57425">
        <ele>1049.3</ele>
        <time>2022-07-08T11:42:54.558Z</time>
      </trkpt>
      <trkpt lat="45.12561" lon="5.57413">
        <ele>1051.3</ele>
        <time>2022-07-08T11:43:05.250Z</time>
      </trkpt>
      <trkpt lat="45.12553" lon="5.57402">
        <ele>1052.6</ele>
        <time>2022-07-08T11:43:13.482Z</time>
      </trkpt>
      <trkpt lat="45.12542" lon="5.5739">
        <ele>1053.7</ele>
        <time>2022-07-08T11:43:20.627Z</time>
      </trkpt>
      <trkpt lat="45.12533" lon="5.57379">
        <ele>1055.4</ele>
        <time>2022-07-08T11:43:31.535Z</time>
      </trkpt>
      <trkpt lat="45.12523" lon="5.57369">
        <ele>1056.2</ele>
        <time>2022-07-08T11:43:37.198Z</time>
      </trkpt>
      <trkpt lat="45.12513" lon="5.57358">
        <ele>1057.3</ele>
        <time>2022-07-08T11:43:44.145Z</time>
      </trkpt>
      <trkpt lat="45.12504" lon="5.57347">
        <ele>1058.6</ele>
        <time>2022-07-08T11:43:52.240Z</time>
      </trkpt>
      <trkpt lat="45.12495" lon="5.57334">
        <ele>1060.5</ele>
        <time>2022-07-08T11:44:04.035Z</time>
      </trkpt>
      <trkpt lat="45.12486" lon="5.57324">
        <ele>1061.8</ele>
        <time>2022-07-08T11:44:12.200Z</time>
      </trkpt>
      <trkpt lat="45.12476" lon="5.57312">
        <ele>1063.6</ele>
        <time>2022-07-08T11:44:24.228Z</time>
      </trkpt>
      <trkpt lat="45.12467" lon="5.57301">
        <ele>1065.3</ele>
        <time>2022-07-08T11:44:35.136Z</time>
      </trkpt>
      <trkpt lat="45.12458" lon="5.57289">
        <ele>1067.4</ele>
        <time>2022-07-08T11:44:46.478Z</time>
      </trkpt>
      <trkpt lat="45.12451" lon="5.57276">
        <ele>1070.3</ele>
        <time>2022-07-08T11:44:57.069Z</time>
      </trkpt>
      <trkpt lat="45.12441" lon="5.57262">
        <ele>1072.9</ele>
        <time>2022-07-08T11:45:09.971Z</time>
      </trkpt>
      <trkpt lat="45.12432" lon="5.57254">
        <ele>1073.9</ele>
        <time>2022-07-08T11:45:16.190Z</time>
      </trkpt>
      <trkpt lat="45.12422" lon="5.57245">
        <ele>1075</ele>
        <time>2022-07-08T11:45:23.044Z</time>
      </trkpt>
      <trkpt lat="45.1241" lon="5.57235">
        <ele>1076</ele>
        <time>2022-07-08T11:45:29.803Z</time>
      </trkpt>
      <trkpt lat="45.12399" lon="5.57227">
        <ele>1076.5</ele>
        <time>2022-07-08T11:45:34.477Z</time>
      </trkpt>
      <trkpt lat="45.12389" lon="5.57217">
        <ele>1077.9</ele>
        <time>2022-07-08T11:45:43.286Z</time>
      </trkpt>
      <trkpt lat="45.12379" lon="5.57206">
        <ele>1079.7</ele>
        <time>2022-07-08T11:45:54.905Z</time>
      </trkpt>
      <trkpt lat="45.12366" lon="5.57195">
        <ele>1080.9</ele>
        <time>2022-07-08T11:46:02.700Z</time>
      </trkpt>
      <trkpt lat="45.12356" lon="5.57183">
        <ele>1083.4</ele>
        <time>2022-07-08T11:46:14.727Z</time>
      </trkpt>
      <trkpt lat="45.12346" lon="5.57173">
        <ele>1085.2</ele>
        <time>2022-07-08T11:46:25.961Z</time>
      </trkpt>
      <trkpt lat="45.12333" lon="5.57165">
        <ele>1085.6</ele>
        <time>2022-07-08T11:46:30.509Z</time>
      </trkpt>
      <trkpt lat="45.12322" lon="5.57159">
        <ele>1085.9</ele>
        <time>2022-07-08T11:46:34.167Z</time>
      </trkpt>
      <trkpt lat="45.12313" lon="5.5715">
        <ele>1087.8</ele>
        <time>2022-07-08T11:46:44.277Z</time>
      </trkpt>
      <trkpt lat="45.12299" lon="5.57139">
        <ele>1089.3</ele>
        <time>2022-07-08T11:46:53.611Z</time>
      </trkpt>
      <trkpt lat="45.12282" lon="5.57128">
        <ele>1090.2</ele>
        <time>2022-07-08T11:47:01.295Z</time>
      </trkpt>
      <trkpt lat="45.12269" lon="5.57126">
        <ele>1088.1</ele>
        <time>2022-07-08T11:47:02.640Z</time>
      </trkpt>
      <trkpt lat="45.12257" lon="5.57117">
        <ele>1089.8</ele>
        <time>2022-07-08T11:47:13.779Z</time>
      </trkpt>
      <trkpt lat="45.12248" lon="5.57107">
        <ele>1092.7</ele>
        <time>2022-07-08T11:47:24.276Z</time>
      </trkpt>
      <trkpt lat="45.1224" lon="5.57095">
        <ele>1097.1</ele>
        <time>2022-07-08T11:47:34.969Z</time>
      </trkpt>
      <trkpt lat="45.12229" lon="5.5709">
        <ele>1097.3</ele>
        <time>2022-07-08T11:47:38.236Z</time>
      </trkpt>
      <trkpt lat="45.12214" lon="5.57087">
        <ele>1096.1</ele>
        <time>2022-07-08T11:47:39.795Z</time>
      </trkpt>
      <trkpt lat="45.122" lon="5.57079">
        <ele>1097.9</ele>
        <time>2022-07-08T11:47:51.292Z</time>
      </trkpt>
      <trkpt lat="45.12186" lon="5.57072">
        <ele>1098.8</ele>
        <time>2022-07-08T11:47:57.932Z</time>
      </trkpt>
      <trkpt lat="45.12175" lon="5.57068">
        <ele>1098.7</ele>
        <time>2022-07-08T11:47:59.839Z</time>
      </trkpt>
      <trkpt lat="45.12166" lon="5.57063">
        <ele>1099.4</ele>
        <time>2022-07-08T11:48:04.553Z</time>
      </trkpt>
      <trkpt lat="45.12153" lon="5.57057">
        <ele>1099.8</ele>
        <time>2022-07-08T11:48:08.998Z</time>
      </trkpt>
      <trkpt lat="45.12136" lon="5.57047">
        <ele>1101.7</ele>
        <time>2022-07-08T11:48:20.759Z</time>
      </trkpt>
      <trkpt lat="45.12121" lon="5.57039">
        <ele>1102.5</ele>
        <time>2022-07-08T11:48:27.424Z</time>
      </trkpt>
      <trkpt lat="45.12108" lon="5.57032">
        <ele>1103.1</ele>
        <time>2022-07-08T11:48:32.896Z</time>
      </trkpt>
      <trkpt lat="45.12097" lon="5.57026">
        <ele>1103.3</ele>
        <time>2022-07-08T11:48:36.217Z</time>
      </trkpt>
      <trkpt lat="45.12086" lon="5.57019">
        <ele>1103.8</ele>
        <time>2022-07-08T11:48:40.844Z</time>
      </trkpt>
      <trkpt lat="45.12075" lon="5.57009">
        <ele>1105.7</ele>
        <time>2022-07-08T11:48:52.839Z</time>
      </trkpt>
      <trkpt lat="45.12064" lon="5.56996">
        <ele>1109</ele>
        <time>2022-07-08T11:49:05.986Z</time>
      </trkpt>
      <trkpt lat="45.12054" lon="5.56986">
        <ele>1111.2</ele>
        <time>2022-07-08T11:49:17.220Z</time>
      </trkpt>
      <trkpt lat="45.12044" lon="5.56974">
        <ele>1114.3</ele>
        <time>2022-07-08T11:49:29.248Z</time>
      </trkpt>
      <trkpt lat="45.12032" lon="5.56965">
        <ele>1115.5</ele>
        <time>2022-07-08T11:49:36.795Z</time>
      </trkpt>
      <trkpt lat="45.12017" lon="5.56954">
        <ele>1117.2</ele>
        <time>2022-07-08T11:49:47.315Z</time>
      </trkpt>
      <trkpt lat="45.12006" lon="5.56947">
        <ele>1118.1</ele>
        <time>2022-07-08T11:49:53.298Z</time>
      </trkpt>
      <trkpt lat="45.11994" lon="5.56941">
        <ele>1118.5</ele>
        <time>2022-07-08T11:49:57.551Z</time>
      </trkpt>
      <trkpt lat="45.11979" lon="5.56935">
        <ele>1118.4</ele>
        <time>2022-07-08T11:50:00.928Z</time>
      </trkpt>
      <trkpt lat="45.11966" lon="5.5693">
        <ele>1118.1</ele>
        <time>2022-07-08T11:50:02.842Z</time>
      </trkpt>
      <trkpt lat="45.11955" lon="5.56922">
        <ele>1119.6</ele>
        <time>2022-07-08T11:50:12.499Z</time>
      </trkpt>
      <trkpt lat="45.11944" lon="5.56916">
        <ele>1120.2</ele>
        <time>2022-07-08T11:50:17.433Z</time>
      </trkpt>
      <trkpt lat="45.11931" lon="5.56909">
        <ele>1120.1</ele>
        <time>2022-07-08T11:50:20.414Z</time>
      </trkpt>
      <trkpt lat="45.1192" lon="5.56902">
        <ele>1120.5</ele>
        <time>2022-07-08T11:50:24.536Z</time>
      </trkpt>
      <trkpt lat="45.11908" lon="5.56895">
        <ele>1120.5</ele>
        <time>2022-07-08T11:50:27.624Z</time>
      </trkpt>
      <trkpt lat="45.11894" lon="5.56884">
        <ele>1120.7</ele>
        <time>2022-07-08T11:50:31.926Z</time>
      </trkpt>
      <trkpt lat="45.11879" lon="5.56874">
        <ele>1119.8</ele>
        <time>2022-07-08T11:50:33.651Z</time>
      </trkpt>
      <trkpt lat="45.1187" lon="5.56863">
        <ele>1120.1</ele>
        <time>2022-07-08T11:50:37.329Z</time>
      </trkpt>
      <trkpt lat="45.11872" lon="5.56846">
        <ele>1123</ele>
        <time>2022-07-08T11:50:48.492Z</time>
      </trkpt>
      <trkpt lat="45.11883" lon="5.56837">
        <ele>1127.6</ele>
        <time>2022-07-08T11:51:00.151Z</time>
      </trkpt>
      <trkpt lat="45.11892" lon="5.56826">
        <ele>1131.1</ele>
        <time>2022-07-08T11:51:11.060Z</time>
      </trkpt>
      <trkpt lat="45.11898" lon="5.56813">
        <ele>1133.5</ele>
        <time>2022-07-08T11:51:21.122Z</time>
      </trkpt>
      <trkpt lat="45.11902" lon="5.56795">
        <ele>1135</ele>
        <time>2022-07-08T11:51:30.520Z</time>
      </trkpt>
      <trkpt lat="45.11907" lon="5.56772">
        <ele>1136.3</ele>
        <time>2022-07-08T11:51:39.075Z</time>
      </trkpt>
      <trkpt lat="45.11914" lon="5.56754">
        <ele>1138.2</ele>
        <time>2022-07-08T11:51:51.936Z</time>
      </trkpt>
      <trkpt lat="45.1192" lon="5.56736">
        <ele>1138.5</ele>
        <time>2022-07-08T11:51:56.092Z</time>
      </trkpt>
      <trkpt lat="45.11927" lon="5.56715">
        <ele>1138.6</ele>
        <time>2022-07-08T11:52:00.223Z</time>
      </trkpt>
      <trkpt lat="45.11934" lon="5.56698">
        <ele>1139</ele>
        <time>2022-07-08T11:52:04.713Z</time>
      </trkpt>
      <trkpt lat="45.11944" lon="5.56683">
        <ele>1140.2</ele>
        <time>2022-07-08T11:52:12.405Z</time>
      </trkpt>
      <trkpt lat="45.11953" lon="5.56668">
        <ele>1141.3</ele>
        <time>2022-07-08T11:52:19.553Z</time>
      </trkpt>
      <trkpt lat="45.11963" lon="5.56651">
        <ele>1143.2</ele>
        <time>2022-07-08T11:52:31.803Z</time>
      </trkpt>
      <trkpt lat="45.11972" lon="5.56637">
        <ele>1144.8</ele>
        <time>2022-07-08T11:52:42.041Z</time>
      </trkpt>
      <trkpt lat="45.11981" lon="5.56623">
        <ele>1146.2</ele>
        <time>2022-07-08T11:52:50.714Z</time>
      </trkpt>
      <trkpt lat="45.11992" lon="5.56607">
        <ele>1147.8</ele>
        <time>2022-07-08T11:53:00.614Z</time>
      </trkpt>
      <trkpt lat="45.12003" lon="5.56597">
        <ele>1149.6</ele>
        <time>2022-07-08T11:53:12.610Z</time>
      </trkpt>
      <trkpt lat="45.12016" lon="5.56593">
        <ele>1151.8</ele>
        <time>2022-07-08T11:53:24.820Z</time>
      </trkpt>
      <trkpt lat="45.12027" lon="5.56592">
        <ele>1153.8</ele>
        <time>2022-07-08T11:53:34.938Z</time>
      </trkpt>
      <trkpt lat="45.12037" lon="5.56591">
        <ele>1155.5</ele>
        <time>2022-07-08T11:53:44.140Z</time>
      </trkpt>
      <trkpt lat="45.1205" lon="5.56587">
        <ele>1157.4</ele>
        <time>2022-07-08T11:53:56.350Z</time>
      </trkpt>
      <trkpt lat="45.1206" lon="5.56572">
        <ele>1159</ele>
        <time>2022-07-08T11:54:06.322Z</time>
      </trkpt>
      <trkpt lat="45.12059" lon="5.5656">
        <ele>1158.7</ele>
        <time>2022-07-08T11:54:07.377Z</time>
      </trkpt>
      <trkpt lat="45.12048" lon="5.56547">
        <ele>1157.6</ele>
        <time>2022-07-08T11:54:08.851Z</time>
      </trkpt>
      <trkpt lat="45.12041" lon="5.56535">
        <ele>1158</ele>
        <time>2022-07-08T11:54:12.774Z</time>
      </trkpt>
      <trkpt lat="45.12033" lon="5.5652">
        <ele>1159.4</ele>
        <time>2022-07-08T11:54:21.451Z</time>
      </trkpt>
      <trkpt lat="45.12025" lon="5.56502">
        <ele>1162.3</ele>
        <time>2022-07-08T11:54:35.229Z</time>
      </trkpt>
      <trkpt lat="45.12013" lon="5.56491">
        <ele>1162.9</ele>
        <time>2022-07-08T11:54:40.755Z</time>
      </trkpt>
      <trkpt lat="45.12002" lon="5.56484">
        <ele>1163.1</ele>
        <time>2022-07-08T11:54:44.139Z</time>
      </trkpt>
      <trkpt lat="45.11992" lon="5.56479">
        <ele>1163.3</ele>
        <time>2022-07-08T11:54:47.189Z</time>
      </trkpt>
      <trkpt lat="45.11983" lon="5.56463">
        <ele>1164.6</ele>
        <time>2022-07-08T11:54:55.334Z</time>
      </trkpt>
      <trkpt lat="45.11977" lon="5.56449">
        <ele>1165.2</ele>
        <time>2022-07-08T11:55:00.204Z</time>
      </trkpt>
      <trkpt lat="45.11973" lon="5.56433">
        <ele>1165.5</ele>
        <time>2022-07-08T11:55:03.903Z</time>
      </trkpt>
      <trkpt lat="45.11977" lon="5.56418">
        <ele>1166.6</ele>
        <time>2022-07-08T11:55:10.721Z</time>
      </trkpt>
      <trkpt lat="45.11986" lon="5.56401">
        <ele>1168</ele>
        <time>2022-07-08T11:55:19.437Z</time>
      </trkpt>
      <trkpt lat="45.12" lon="5.56389">
        <ele>1170</ele>
        <time>2022-07-08T11:55:32.363Z</time>
      </trkpt>
      <trkpt lat="45.12013" lon="5.56382">
        <ele>1170.9</ele>
        <time>2022-07-08T11:55:38.768Z</time>
      </trkpt>
      <trkpt lat="45.12031" lon="5.5639">
        <ele>1173.3</ele>
        <time>2022-07-08T11:55:54.657Z</time>
      </trkpt>
      <trkpt lat="45.12047" lon="5.56386">
        <ele>1174.8</ele>
        <time>2022-07-08T11:56:04.012Z</time>
      </trkpt>
      <trkpt lat="45.12062" lon="5.56388">
        <ele>1176.1</ele>
        <time>2022-07-08T11:56:12.236Z</time>
      </trkpt>
      <trkpt lat="45.12077" lon="5.56392">
        <ele>1176.8</ele>
        <time>2022-07-08T11:56:18.420Z</time>
      </trkpt>
      <trkpt lat="45.12096" lon="5.56398">
        <ele>1177.6</ele>
        <time>2022-07-08T11:56:25.849Z</time>
      </trkpt>
      <trkpt lat="45.12112" lon="5.56405">
        <ele>1178.6</ele>
        <time>2022-07-08T11:56:33.290Z</time>
      </trkpt>
      <trkpt lat="45.12126" lon="5.5641">
        <ele>1179.2</ele>
        <time>2022-07-08T11:56:38.838Z</time>
      </trkpt>
      <trkpt lat="45.12141" lon="5.56409">
        <ele>1179.6</ele>
        <time>2022-07-08T11:56:43.565Z</time>
      </trkpt>
      <trkpt lat="45.12159" lon="5.56409">
        <ele>1180.9</ele>
        <time>2022-07-08T11:56:52.331Z</time>
      </trkpt>
      <trkpt lat="45.12173" lon="5.56414">
        <ele>1182.3</ele>
        <time>2022-07-08T11:57:01.010Z</time>
      </trkpt>
      <trkpt lat="45.12188" lon="5.56418">
        <ele>1183.5</ele>
        <time>2022-07-08T11:57:08.827Z</time>
      </trkpt>
      <trkpt lat="45.12207" lon="5.56418">
        <ele>1185.8</ele>
        <time>2022-07-08T11:57:23.619Z</time>
      </trkpt>
      <trkpt lat="45.12218" lon="5.56418">
        <ele>1187.4</ele>
        <time>2022-07-08T11:57:33.716Z</time>
      </trkpt>
      <trkpt lat="45.1223" lon="5.5641">
        <ele>1188.9</ele>
        <time>2022-07-08T11:57:43.125Z</time>
      </trkpt>
      <trkpt lat="45.12237" lon="5.56404">
        <ele>1189.9</ele>
        <time>2022-07-08T11:57:49.588Z</time>
      </trkpt>
      <trkpt lat="45.12268" lon="5.56336">
        <ele>1193</ele>
        <time>2022-07-08T11:58:14.042Z</time>
      </trkpt>
      <trkpt lat="45.12293" lon="5.56273">
        <ele>1194.4</ele>
        <time>2022-07-08T11:58:30.255Z</time>
      </trkpt>
      <trkpt lat="45.12345" lon="5.5619">
        <ele>1187.4</ele>
        <time>2022-07-08T11:58:38.315Z</time>
      </trkpt>
      <trkpt lat="45.12408" lon="5.56196">
        <ele>1182.9</ele>
        <time>2022-07-08T11:58:44.812Z</time>
      </trkpt>
      <trkpt lat="45.12446" lon="5.56195">
        <ele>1182.2</ele>
        <time>2022-07-08T11:58:50.461Z</time>
      </trkpt>
      <trkpt lat="45.1246" lon="5.56141">
        <ele>1179.3</ele>
        <time>2022-07-08T11:58:54.638Z</time>
      </trkpt>
      <trkpt lat="45.12477" lon="5.56101">
        <ele>1181.8</ele>
        <time>2022-07-08T11:59:11.147Z</time>
      </trkpt>
      <trkpt lat="45.12447" lon="5.56089">
        <ele>1179.7</ele>
        <time>2022-07-08T11:59:14.355Z</time>
      </trkpt>
      <trkpt lat="45.1243" lon="5.56076">
        <ele>1180</ele>
        <time>2022-07-08T11:59:19.714Z</time>
      </trkpt>
      <trkpt lat="45.1242" lon="5.56059">
        <ele>1181.5</ele>
        <time>2022-07-08T11:59:29.020Z</time>
      </trkpt>
      <trkpt lat="45.12409" lon="5.5604">
        <ele>1183.4</ele>
        <time>2022-07-08T11:59:40.855Z</time>
      </trkpt>
      <trkpt lat="45.12395" lon="5.56031">
        <ele>1183.9</ele>
        <time>2022-07-08T11:59:46.066Z</time>
      </trkpt>
      <trkpt lat="45.12383" lon="5.56019">
        <ele>1184.7</ele>
        <time>2022-07-08T11:59:52.361Z</time>
      </trkpt>
      <trkpt lat="45.1237" lon="5.56002">
        <ele>1186.1</ele>
        <time>2022-07-08T12:00:01.459Z</time>
      </trkpt>
      <trkpt lat="45.1236" lon="5.55971">
        <ele>1189.2</ele>
        <time>2022-07-08T12:00:22.176Z</time>
      </trkpt>
      <trkpt lat="45.1236" lon="5.5592">
        <ele>1193.8</ele>
        <time>2022-07-08T12:00:52.732Z</time>
      </trkpt>
      <trkpt lat="45.12363" lon="5.55901">
        <ele>1195.1</ele>
        <time>2022-07-08T12:01:00.811Z</time>
      </trkpt>
      <trkpt lat="45.12371" lon="5.55883">
        <ele>1196.1</ele>
        <time>2022-07-08T12:01:07.820Z</time>
      </trkpt>
      <trkpt lat="45.12378" lon="5.55865">
        <ele>1197.1</ele>
        <time>2022-07-08T12:01:14.710Z</time>
      </trkpt>
      <trkpt lat="45.12386" lon="5.5585">
        <ele>1198.3</ele>
        <time>2022-07-08T12:01:22.222Z</time>
      </trkpt>
      <trkpt lat="45.12387" lon="5.55829">
        <ele>1200.3</ele>
        <time>2022-07-08T12:01:35.853Z</time>
      </trkpt>
      <trkpt lat="45.12392" lon="5.55804">
        <ele>1202.3</ele>
        <time>2022-07-08T12:01:48.301Z</time>
      </trkpt>
      <trkpt lat="45.12402" lon="5.5579">
        <ele>1204.2</ele>
        <time>2022-07-08T12:02:01.204Z</time>
      </trkpt>
      <trkpt lat="45.12416" lon="5.55782">
        <ele>1205.5</ele>
        <time>2022-07-08T12:02:09.432Z</time>
      </trkpt>
      <trkpt lat="45.12432" lon="5.55769">
        <ele>1207.5</ele>
        <time>2022-07-08T12:02:21.869Z</time>
      </trkpt>
      <trkpt lat="45.12444" lon="5.55748">
        <ele>1210.2</ele>
        <time>2022-07-08T12:02:39.370Z</time>
      </trkpt>
      <trkpt lat="45.12254" lon="5.55607">
        <ele>1191</ele>
        <time>2022-07-08T12:03:01.440Z</time>
      </trkpt>
      <trkpt lat="45.12047" lon="5.55797">
        <ele>1197.1</ele>
        <time>2022-07-08T12:04:17.321Z</time>
      </trkpt>
      <trkpt lat="45.12033" lon="5.5578">
        <ele>1197.9</ele>
        <time>2022-07-08T12:04:24.603Z</time>
      </trkpt>
      <trkpt lat="45.12018" lon="5.55763">
        <ele>1197.9</ele>
        <time>2022-07-08T12:04:29.173Z</time>
      </trkpt>
      <trkpt lat="45.12008" lon="5.55747">
        <ele>1198.5</ele>
        <time>2022-07-08T12:04:34.820Z</time>
      </trkpt>
      <trkpt lat="45.11994" lon="5.5573">
        <ele>1199.2</ele>
        <time>2022-07-08T12:04:41.547Z</time>
      </trkpt>
      <trkpt lat="45.11975" lon="5.55714">
        <ele>1200</ele>
        <time>2022-07-08T12:04:49.415Z</time>
      </trkpt>
      <trkpt lat="45.11961" lon="5.55699">
        <ele>1200.7</ele>
        <time>2022-07-08T12:04:55.996Z</time>
      </trkpt>
      <trkpt lat="45.11956" lon="5.55673">
        <ele>1202.8</ele>
        <time>2022-07-08T12:05:09.096Z</time>
      </trkpt>
      <trkpt lat="45.11951" lon="5.55643">
        <ele>1204.9</ele>
        <time>2022-07-08T12:05:22.118Z</time>
      </trkpt>
      <trkpt lat="45.1194" lon="5.55619">
        <ele>1206</ele>
        <time>2022-07-08T12:05:30.775Z</time>
      </trkpt>
      <trkpt lat="45.11929" lon="5.55597">
        <ele>1207.1</ele>
        <time>2022-07-08T12:05:39.119Z</time>
      </trkpt>
      <trkpt lat="45.11921" lon="5.55577">
        <ele>1208.5</ele>
        <time>2022-07-08T12:05:47.976Z</time>
      </trkpt>
      <trkpt lat="45.11911" lon="5.55559">
        <ele>1209.7</ele>
        <time>2022-07-08T12:05:55.972Z</time>
      </trkpt>
      <trkpt lat="45.11903" lon="5.55543">
        <ele>1210.4</ele>
        <time>2022-07-08T12:06:01.752Z</time>
      </trkpt>
      <trkpt lat="45.11897" lon="5.55524">
        <ele>1211.6</ele>
        <time>2022-07-08T12:06:09.466Z</time>
      </trkpt>
      <trkpt lat="45.1189" lon="5.55506">
        <ele>1212.5</ele>
        <time>2022-07-08T12:06:16.019Z</time>
      </trkpt>
      <trkpt lat="45.11885" lon="5.55489">
        <ele>1214.4</ele>
        <time>2022-07-08T12:06:27.948Z</time>
      </trkpt>
      <trkpt lat="45.11881" lon="5.5547">
        <ele>1216.9</ele>
        <time>2022-07-08T12:06:40.790Z</time>
      </trkpt>
      <trkpt lat="45.11878" lon="5.55457">
        <ele>1218.2</ele>
        <time>2022-07-08T12:06:49.649Z</time>
      </trkpt>
      <trkpt lat="45.1187" lon="5.55441">
        <ele>1219.2</ele>
        <time>2022-07-08T12:06:56.391Z</time>
      </trkpt>
      <trkpt lat="45.1186" lon="5.55427">
        <ele>1219.9</ele>
        <time>2022-07-08T12:07:02.232Z</time>
      </trkpt>
      <trkpt lat="45.11849" lon="5.5541">
        <ele>1219.9</ele>
        <time>2022-07-08T12:07:06.105Z</time>
      </trkpt>
      <trkpt lat="45.11838" lon="5.55397">
        <ele>1219</ele>
        <time>2022-07-08T12:07:07.496Z</time>
      </trkpt>
      <trkpt lat="45.11823" lon="5.55379">
        <ele>1218</ele>
        <time>2022-07-08T12:07:09.601Z</time>
      </trkpt>
      <trkpt lat="45.1181" lon="5.55362">
        <ele>1217.1</ele>
        <time>2022-07-08T12:07:11.495Z</time>
      </trkpt>
      <trkpt lat="45.118" lon="5.55332">
        <ele>1220.2</ele>
        <time>2022-07-08T12:07:32.671Z</time>
      </trkpt>
      <trkpt lat="45.11797" lon="5.55276">
        <ele>1228.3</ele>
        <time>2022-07-08T12:08:09.048Z</time>
      </trkpt>
      <trkpt lat="45.11773" lon="5.55222">
        <ele>1234.4</ele>
        <time>2022-07-08T12:08:50.383Z</time>
      </trkpt>
      <trkpt lat="45.11757" lon="5.55241">
        <ele>1232.8</ele>
        <time>2022-07-08T12:08:52.532Z</time>
      </trkpt>
      <trkpt lat="45.11749" lon="5.55251">
        <ele>1231.9</ele>
        <time>2022-07-08T12:08:53.629Z</time>
      </trkpt>
      <trkpt lat="45.11739" lon="5.55262">
        <ele>1230.6</ele>
        <time>2022-07-08T12:08:54.932Z</time>
      </trkpt>
      <trkpt lat="45.11707" lon="5.55266">
        <ele>1231.4</ele>
        <time>2022-07-08T12:09:04.836Z</time>
      </trkpt>
      <trkpt lat="45.11668" lon="5.55257">
        <ele>1230.8</ele>
        <time>2022-07-08T12:09:10.945Z</time>
      </trkpt>
      <trkpt lat="45.11644" lon="5.55215">
        <ele>1234.8</ele>
        <time>2022-07-08T12:09:35.725Z</time>
      </trkpt>
      <trkpt lat="45.1164" lon="5.55196">
        <ele>1237.8</ele>
        <time>2022-07-08T12:09:48.568Z</time>
      </trkpt>
      <trkpt lat="45.11637" lon="5.55181">
        <ele>1239.2</ele>
        <time>2022-07-08T12:09:57.838Z</time>
      </trkpt>
      <trkpt lat="45.11634" lon="5.55169">
        <ele>1240.2</ele>
        <time>2022-07-08T12:10:04.087Z</time>
      </trkpt>
      <trkpt lat="45.1163" lon="5.55155">
        <ele>1241.7</ele>
        <time>2022-07-08T12:10:13.870Z</time>
      </trkpt>
      <trkpt lat="45.11628" lon="5.55144">
        <ele>1243.1</ele>
        <time>2022-07-08T12:10:21.228Z</time>
      </trkpt>
      <trkpt lat="45.11623" lon="5.55128">
        <ele>1244.2</ele>
        <time>2022-07-08T12:10:28.135Z</time>
      </trkpt>
      <trkpt lat="45.11621" lon="5.5511">
        <ele>1245.5</ele>
        <time>2022-07-08T12:10:36.178Z</time>
      </trkpt>
      <trkpt lat="45.11621" lon="5.55093">
        <ele>1247.1</ele>
        <time>2022-07-08T12:10:47.180Z</time>
      </trkpt>
      <trkpt lat="45.1162" lon="5.55078">
        <ele>1248.3</ele>
        <time>2022-07-08T12:10:54.703Z</time>
      </trkpt>
      <trkpt lat="45.11615" lon="5.55061">
        <ele>1249</ele>
        <time>2022-07-08T12:11:00.251Z</time>
      </trkpt>
      <trkpt lat="45.11612" lon="5.55041">
        <ele>1250.1</ele>
        <time>2022-07-08T12:11:07.502Z</time>
      </trkpt>
      <trkpt lat="45.11611" lon="5.55022">
        <ele>1251.4</ele>
        <time>2022-07-08T12:11:15.562Z</time>
      </trkpt>
      <trkpt lat="45.11605" lon="5.55">
        <ele>1252.6</ele>
        <time>2022-07-08T12:11:23.660Z</time>
      </trkpt>
      <trkpt lat="45.11598" lon="5.54984">
        <ele>1253.2</ele>
        <time>2022-07-08T12:11:29.018Z</time>
      </trkpt>
      <trkpt lat="45.11593" lon="5.54966">
        <ele>1254.1</ele>
        <time>2022-07-08T12:11:35.361Z</time>
      </trkpt>
      <trkpt lat="45.11593" lon="5.54949">
        <ele>1255.1</ele>
        <time>2022-07-08T12:11:41.749Z</time>
      </trkpt>
      <trkpt lat="45.11593" lon="5.54932">
        <ele>1255.6</ele>
        <time>2022-07-08T12:11:46.366Z</time>
      </trkpt>
      <trkpt lat="45.116" lon="5.54917">
        <ele>1256</ele>
        <time>2022-07-08T12:11:50.612Z</time>
      </trkpt>
      <trkpt lat="45.11598" lon="5.54893">
        <ele>1255.6</ele>
        <time>2022-07-08T12:11:53.003Z</time>
      </trkpt>
      <trkpt lat="45.11587" lon="5.54879">
        <ele>1255.5</ele>
        <time>2022-07-08T12:11:56.191Z</time>
      </trkpt>
      <trkpt lat="45.11577" lon="5.54875">
        <ele>1255.8</ele>
        <time>2022-07-08T12:11:59.553Z</time>
      </trkpt>
      <trkpt lat="45.11558" lon="5.54849">
        <ele>1256.7</ele>
        <time>2022-07-08T12:12:08.690Z</time>
      </trkpt>
      <trkpt lat="45.11542" lon="5.54837">
        <ele>1257.9</ele>
        <time>2022-07-08T12:12:17.123Z</time>
      </trkpt>
      <trkpt lat="45.11534" lon="5.54821">
        <ele>1258</ele>
        <time>2022-07-08T12:12:20.649Z</time>
      </trkpt>
      <trkpt lat="45.11518" lon="5.54816">
        <ele>1258.9</ele>
        <time>2022-07-08T12:12:27.695Z</time>
      </trkpt>
      <trkpt lat="45.11503" lon="5.54815">
        <ele>1259.8</ele>
        <time>2022-07-08T12:12:34.378Z</time>
      </trkpt>
      <trkpt lat="45.11488" lon="5.54809">
        <ele>1260.3</ele>
        <time>2022-07-08T12:12:39.631Z</time>
      </trkpt>
      <trkpt lat="45.11474" lon="5.54795">
        <ele>1261.3</ele>
        <time>2022-07-08T12:12:47.174Z</time>
      </trkpt>
      <trkpt lat="45.11457" lon="5.54787">
        <ele>1261.7</ele>
        <time>2022-07-08T12:12:52.533Z</time>
      </trkpt>
      <trkpt lat="45.11434" lon="5.54795">
        <ele>1261.5</ele>
        <time>2022-07-08T12:12:56.529Z</time>
      </trkpt>
      <trkpt lat="45.11418" lon="5.54781">
        <ele>1262.7</ele>
        <time>2022-07-08T12:13:05.132Z</time>
      </trkpt>
      <trkpt lat="45.11394" lon="5.54778">
        <ele>1263</ele>
        <time>2022-07-08T12:13:11.604Z</time>
      </trkpt>
      <trkpt lat="45.11334" lon="5.54761">
        <ele>1260.4</ele>
        <time>2022-07-08T12:13:18.666Z</time>
      </trkpt>
      <trkpt lat="45.11309" lon="5.54764">
        <ele>1259.2</ele>
        <time>2022-07-08T12:13:21.425Z</time>
      </trkpt>
      <trkpt lat="45.11271" lon="5.54745">
        <ele>1254.4</ele>
        <time>2022-07-08T12:13:25.572Z</time>
      </trkpt>
      <trkpt lat="45.11225" lon="5.54756">
        <ele>1252.2</ele>
        <time>2022-07-08T12:13:30.733Z</time>
      </trkpt>
      <trkpt lat="45.11196" lon="5.54769">
        <ele>1251.2</ele>
        <time>2022-07-08T12:13:34.588Z</time>
      </trkpt>
      <trkpt lat="45.1116" lon="5.54763">
        <ele>1248.2</ele>
        <time>2022-07-08T12:13:38.318Z</time>
      </trkpt>
      <trkpt lat="45.11115" lon="5.54742">
        <ele>1244.6</ele>
        <time>2022-07-08T12:13:43.193Z</time>
      </trkpt>
      <trkpt lat="45.11095" lon="5.54744">
        <ele>1244.5</ele>
        <time>2022-07-08T12:13:47.626Z</time>
      </trkpt>
      <trkpt lat="45.11066" lon="5.54749">
        <ele>1244.2</ele>
        <time>2022-07-08T12:13:52.436Z</time>
      </trkpt>
      <trkpt lat="45.11034" lon="5.54748">
        <ele>1242.1</ele>
        <time>2022-07-08T12:13:55.478Z</time>
      </trkpt>
      <trkpt lat="45.11" lon="5.54746">
        <ele>1240.4</ele>
        <time>2022-07-08T12:13:59.151Z</time>
      </trkpt>
      <trkpt lat="45.10961" lon="5.54736">
        <ele>1238.8</ele>
        <time>2022-07-08T12:14:03.818Z</time>
      </trkpt>
      <trkpt lat="45.10917" lon="5.54734">
        <ele>1237.3</ele>
        <time>2022-07-08T12:14:09.330Z</time>
      </trkpt>
      <trkpt lat="45.10853" lon="5.54735">
        <ele>1232.3</ele>
        <time>2022-07-08T12:14:15.916Z</time>
      </trkpt>
      <trkpt lat="45.1083" lon="5.54717">
        <ele>1226.5</ele>
        <time>2022-07-08T12:14:18.620Z</time>
      </trkpt>
      <trkpt lat="45.10791" lon="5.54722">
        <ele>1223.9</ele>
        <time>2022-07-08T12:14:22.319Z</time>
      </trkpt>
      <trkpt lat="45.10774" lon="5.54706">
        <ele>1219.3</ele>
        <time>2022-07-08T12:14:24.419Z</time>
      </trkpt>
      <trkpt lat="45.1075" lon="5.54694">
        <ele>1215.9</ele>
        <time>2022-07-08T12:14:27.038Z</time>
      </trkpt>
      <trkpt lat="45.1072" lon="5.54674">
        <ele>1212.3</ele>
        <time>2022-07-08T12:14:30.450Z</time>
      </trkpt>
      <trkpt lat="45.10701" lon="5.54649">
        <ele>1209.3</ele>
        <time>2022-07-08T12:14:33.118Z</time>
      </trkpt>
      <trkpt lat="45.10662" lon="5.54622">
        <ele>1208.9</ele>
        <time>2022-07-08T12:14:40.367Z</time>
      </trkpt>
      <trkpt lat="45.10646" lon="5.5461">
        <ele>1208.7</ele>
        <time>2022-07-08T12:14:43.317Z</time>
      </trkpt>
      <trkpt lat="45.1063" lon="5.54567">
        <ele>1208.3</ele>
        <time>2022-07-08T12:14:48.864Z</time>
      </trkpt>
      <trkpt lat="45.10623" lon="5.54547">
        <ele>1208.6</ele>
        <time>2022-07-08T12:14:53.406Z</time>
      </trkpt>
      <trkpt lat="45.10611" lon="5.54529">
        <ele>1209</ele>
        <time>2022-07-08T12:14:58.668Z</time>
      </trkpt>
      <trkpt lat="45.10604" lon="5.54496">
        <ele>1210.3</ele>
        <time>2022-07-08T12:15:09.022Z</time>
      </trkpt>
      <trkpt lat="45.10602" lon="5.54482">
        <ele>1210.5</ele>
        <time>2022-07-08T12:15:11.954Z</time>
      </trkpt>
      <trkpt lat="45.1059" lon="5.54464">
        <ele>1211.5</ele>
        <time>2022-07-08T12:15:19.587Z</time>
      </trkpt>
      <trkpt lat="45.10578" lon="5.54444">
        <ele>1212.6</ele>
        <time>2022-07-08T12:15:27.801Z</time>
      </trkpt>
      <trkpt lat="45.10571" lon="5.54421">
        <ele>1214.2</ele>
        <time>2022-07-08T12:15:37.815Z</time>
      </trkpt>
      <trkpt lat="45.10562" lon="5.544">
        <ele>1215.3</ele>
        <time>2022-07-08T12:15:45.727Z</time>
      </trkpt>
      <trkpt lat="45.10549" lon="5.54375">
        <ele>1216.2</ele>
        <time>2022-07-08T12:15:54.087Z</time>
      </trkpt>
      <trkpt lat="45.10537" lon="5.54365">
        <ele>1217.1</ele>
        <time>2022-07-08T12:16:00.495Z</time>
      </trkpt>
      <trkpt lat="45.10505" lon="5.54358">
        <ele>1219.5</ele>
        <time>2022-07-08T12:16:16.497Z</time>
      </trkpt>
      <trkpt lat="45.10483" lon="5.54353">
        <ele>1221.1</ele>
        <time>2022-07-08T12:16:27.314Z</time>
      </trkpt>
      <trkpt lat="45.10473" lon="5.54341">
        <ele>1221.9</ele>
        <time>2022-07-08T12:16:33.193Z</time>
      </trkpt>
      <trkpt lat="45.1046" lon="5.54338">
        <ele>1222.9</ele>
        <time>2022-07-08T12:16:39.795Z</time>
      </trkpt>
      <trkpt lat="45.10449" lon="5.54329">
        <ele>1223.6</ele>
        <time>2022-07-08T12:16:45.264Z</time>
      </trkpt>
      <trkpt lat="45.10443" lon="5.54313">
        <ele>1224.1</ele>
        <time>2022-07-08T12:16:50.005Z</time>
      </trkpt>
      <trkpt lat="45.10435" lon="5.54297">
        <ele>1224.8</ele>
        <time>2022-07-08T12:16:55.785Z</time>
      </trkpt>
      <trkpt lat="45.10429" lon="5.54276">
        <ele>1225.1</ele>
        <time>2022-07-08T12:17:00.380Z</time>
      </trkpt>
      <trkpt lat="45.10409" lon="5.54261">
        <ele>1227.6</ele>
        <time>2022-07-08T12:17:15.977Z</time>
      </trkpt>
      <trkpt lat="45.10393" lon="5.54267">
        <ele>1229.8</ele>
        <time>2022-07-08T12:17:31.057Z</time>
      </trkpt>
      <trkpt lat="45.10385" lon="5.54252">
        <ele>1231.3</ele>
        <time>2022-07-08T12:17:40.465Z</time>
      </trkpt>
      <trkpt lat="45.10377" lon="5.54238">
        <ele>1232.5</ele>
        <time>2022-07-08T12:17:47.924Z</time>
      </trkpt>
      <trkpt lat="45.10369" lon="5.54236">
        <ele>1233.5</ele>
        <time>2022-07-08T12:17:54.412Z</time>
      </trkpt>
      <trkpt lat="45.10358" lon="5.54231">
        <ele>1234.9</ele>
        <time>2022-07-08T12:18:03.421Z</time>
      </trkpt>
      <trkpt lat="45.10347" lon="5.54226">
        <ele>1235.9</ele>
        <time>2022-07-08T12:18:09.742Z</time>
      </trkpt>
      <trkpt lat="45.10337" lon="5.54223">
        <ele>1236.7</ele>
        <time>2022-07-08T12:18:14.963Z</time>
      </trkpt>
      <trkpt lat="45.10323" lon="5.54227">
        <ele>1237.7</ele>
        <time>2022-07-08T12:18:21.802Z</time>
      </trkpt>
      <trkpt lat="45.10314" lon="5.54234">
        <ele>1238.4</ele>
        <time>2022-07-08T12:18:26.652Z</time>
      </trkpt>
      <trkpt lat="45.10302" lon="5.54233">
        <ele>1239</ele>
        <time>2022-07-08T12:18:31.652Z</time>
      </trkpt>
      <trkpt lat="45.10289" lon="5.5424">
        <ele>1239.4</ele>
        <time>2022-07-08T12:18:36.145Z</time>
      </trkpt>
      <trkpt lat="45.10271" lon="5.54269">
        <ele>1239.3</ele>
        <time>2022-07-08T12:18:42.286Z</time>
      </trkpt>
      <trkpt lat="45.10206" lon="5.54283">
        <ele>1239.1</ele>
        <time>2022-07-08T12:18:57.235Z</time>
      </trkpt>
      <trkpt lat="45.10134" lon="5.54278">
        <ele>1239.8</ele>
        <time>2022-07-08T12:19:16.065Z</time>
      </trkpt>
      <trkpt lat="45.10067" lon="5.54268">
        <ele>1238.8</ele>
        <time>2022-07-08T12:19:26.525Z</time>
      </trkpt>
      <trkpt lat="45.10041" lon="5.54253">
        <ele>1240.8</ele>
        <time>2022-07-08T12:19:40.095Z</time>
      </trkpt>
      <trkpt lat="45.10005" lon="5.54235">
        <ele>1243.4</ele>
        <time>2022-07-08T12:19:58.119Z</time>
      </trkpt>
      <trkpt lat="45.09986" lon="5.54231">
        <ele>1244.2</ele>
        <time>2022-07-08T12:20:05.509Z</time>
      </trkpt>
      <trkpt lat="45.09969" lon="5.54233">
        <ele>1244.7</ele>
        <time>2022-07-08T12:20:11.058Z</time>
      </trkpt>
      <trkpt lat="45.09946" lon="5.54226">
        <ele>1245.8</ele>
        <time>2022-07-08T12:20:20.644Z</time>
      </trkpt>
      <trkpt lat="45.09925" lon="5.5422">
        <ele>1246.8</ele>
        <time>2022-07-08T12:20:29.368Z</time>
      </trkpt>
      <trkpt lat="45.0991" lon="5.54215">
        <ele>1247.7</ele>
        <time>2022-07-08T12:20:36.154Z</time>
      </trkpt>
      <trkpt lat="45.09897" lon="5.54209">
        <ele>1248.9</ele>
        <time>2022-07-08T12:20:43.714Z</time>
      </trkpt>
      <trkpt lat="45.09883" lon="5.54205">
        <ele>1250</ele>
        <time>2022-07-08T12:20:50.935Z</time>
      </trkpt>
      <trkpt lat="45.0987" lon="5.54203">
        <ele>1251.1</ele>
        <time>2022-07-08T12:20:57.943Z</time>
      </trkpt>
      <trkpt lat="45.09858" lon="5.54198">
        <ele>1252.2</ele>
        <time>2022-07-08T12:21:04.870Z</time>
      </trkpt>
      <trkpt lat="45.09844" lon="5.54196">
        <ele>1253.8</ele>
        <time>2022-07-08T12:21:14.921Z</time>
      </trkpt>
      <trkpt lat="45.09832" lon="5.54194">
        <ele>1255.3</ele>
        <time>2022-07-08T12:21:24.698Z</time>
      </trkpt>
      <trkpt lat="45.09821" lon="5.54191">
        <ele>1258</ele>
        <time>2022-07-08T12:21:34.981Z</time>
      </trkpt>
      <trkpt lat="45.09809" lon="5.54188">
        <ele>1261</ele>
        <time>2022-07-08T12:21:46.166Z</time>
      </trkpt>
      <trkpt lat="45.09798" lon="5.54192">
        <ele>1263.4</ele>
        <time>2022-07-08T12:21:56.590Z</time>
      </trkpt>
      <trkpt lat="45.09787" lon="5.54193">
        <ele>1266.5</ele>
        <time>2022-07-08T12:22:06.707Z</time>
      </trkpt>
      <trkpt lat="45.09775" lon="5.54197">
        <ele>1269.4</ele>
        <time>2022-07-08T12:22:18.023Z</time>
      </trkpt>
      <trkpt lat="45.09763" lon="5.54203">
        <ele>1272</ele>
        <time>2022-07-08T12:22:29.704Z</time>
      </trkpt>
      <trkpt lat="45.0975" lon="5.54209">
        <ele>1274.9</ele>
        <time>2022-07-08T12:22:42.254Z</time>
      </trkpt>
      <trkpt lat="45.09736" lon="5.5421">
        <ele>1278.1</ele>
        <time>2022-07-08T12:22:55.120Z</time>
      </trkpt>
      <trkpt lat="45.09722" lon="5.54212">
        <ele>1281.1</ele>
        <time>2022-07-08T12:23:08.036Z</time>
      </trkpt>
      <trkpt lat="45.09709" lon="5.54209">
        <ele>1282.9</ele>
        <time>2022-07-08T12:23:20.126Z</time>
      </trkpt>
      <trkpt lat="45.09696" lon="5.54207">
        <ele>1284.5</ele>
        <time>2022-07-08T12:23:30.473Z</time>
      </trkpt>
      <trkpt lat="45.09685" lon="5.54204">
        <ele>1285.6</ele>
        <time>2022-07-08T12:23:37.285Z</time>
      </trkpt>
      <trkpt lat="45.09674" lon="5.54203">
        <ele>1286.5</ele>
        <time>2022-07-08T12:23:43.072Z</time>
      </trkpt>
      <trkpt lat="45.09664" lon="5.54199">
        <ele>1287.6</ele>
        <time>2022-07-08T12:23:49.892Z</time>
      </trkpt>
      <trkpt lat="45.09652" lon="5.54196">
        <ele>1288.4</ele>
        <time>2022-07-08T12:23:55.542Z</time>
      </trkpt>
      <trkpt lat="45.0964" lon="5.54194">
        <ele>1289</ele>
        <time>2022-07-08T12:24:00.558Z</time>
      </trkpt>
      <trkpt lat="45.09629" lon="5.54192">
        <ele>1289.2</ele>
        <time>2022-07-08T12:24:03.720Z</time>
      </trkpt>
      <trkpt lat="45.09616" lon="5.54191">
        <ele>1289.5</ele>
        <time>2022-07-08T12:24:07.647Z</time>
      </trkpt>
      <trkpt lat="45.09605" lon="5.5419">
        <ele>1289.8</ele>
        <time>2022-07-08T12:24:11.141Z</time>
      </trkpt>
      <trkpt lat="45.09592" lon="5.5419">
        <ele>1290.2</ele>
        <time>2022-07-08T12:24:15.449Z</time>
      </trkpt>
      <trkpt lat="45.09579" lon="5.54183">
        <ele>1291.5</ele>
        <time>2022-07-08T12:24:23.541Z</time>
      </trkpt>
      <trkpt lat="45.09568" lon="5.54177">
        <ele>1292.8</ele>
        <time>2022-07-08T12:24:31.648Z</time>
      </trkpt>
      <trkpt lat="45.09558" lon="5.54172">
        <ele>1294.1</ele>
        <time>2022-07-08T12:24:40.063Z</time>
      </trkpt>
      <trkpt lat="45.09548" lon="5.54168">
        <ele>1295.3</ele>
        <time>2022-07-08T12:24:47.636Z</time>
      </trkpt>
      <trkpt lat="45.09536" lon="5.54164">
        <ele>1296.9</ele>
        <time>2022-07-08T12:24:58.385Z</time>
      </trkpt>
      <trkpt lat="45.09524" lon="5.5416">
        <ele>1298.5</ele>
        <time>2022-07-08T12:25:09.134Z</time>
      </trkpt>
      <trkpt lat="45.09514" lon="5.54153">
        <ele>1300.7</ele>
        <time>2022-07-08T12:25:19.373Z</time>
      </trkpt>
      <trkpt lat="45.095" lon="5.54147">
        <ele>1303.2</ele>
        <time>2022-07-08T12:25:32.799Z</time>
      </trkpt>
      <trkpt lat="45.09491" lon="5.5414">
        <ele>1305.4</ele>
        <time>2022-07-08T12:25:42.223Z</time>
      </trkpt>
      <trkpt lat="45.09482" lon="5.54132">
        <ele>1307.8</ele>
        <time>2022-07-08T12:25:51.976Z</time>
      </trkpt>
      <trkpt lat="45.09472" lon="5.54122">
        <ele>1310.7</ele>
        <time>2022-07-08T12:26:03.212Z</time>
      </trkpt>
      <trkpt lat="45.09462" lon="5.54111">
        <ele>1314.1</ele>
        <time>2022-07-08T12:26:14.833Z</time>
      </trkpt>
      <trkpt lat="45.09452" lon="5.54103">
        <ele>1316.7</ele>
        <time>2022-07-08T12:26:25.375Z</time>
      </trkpt>
      <trkpt lat="45.09442" lon="5.54095">
        <ele>1319</ele>
        <time>2022-07-08T12:26:35.916Z</time>
      </trkpt>
      <trkpt lat="45.09429" lon="5.54092">
        <ele>1320</ele>
        <time>2022-07-08T12:26:42.518Z</time>
      </trkpt>
      <trkpt lat="45.09418" lon="5.54093">
        <ele>1320.2</ele>
        <time>2022-07-08T12:26:45.664Z</time>
      </trkpt>
      <trkpt lat="45.09407" lon="5.54093">
        <ele>1320.6</ele>
        <time>2022-07-08T12:26:49.589Z</time>
      </trkpt>
      <trkpt lat="45.09378" lon="5.54094">
        <ele>1321.5</ele>
        <time>2022-07-08T12:26:59.233Z</time>
      </trkpt>
      <trkpt lat="45.09362" lon="5.54094">
        <ele>1322</ele>
        <time>2022-07-08T12:27:04.568Z</time>
      </trkpt>
      <trkpt lat="45.09356" lon="5.54083">
        <ele>1324.2</ele>
        <time>2022-07-08T12:27:13.575Z</time>
      </trkpt>
      <trkpt lat="45.09356" lon="5.54069">
        <ele>1326.8</ele>
        <time>2022-07-08T12:27:22.647Z</time>
      </trkpt>
      <trkpt lat="45.09354" lon="5.54055">
        <ele>1329.4</ele>
        <time>2022-07-08T12:27:31.903Z</time>
      </trkpt>
      <trkpt lat="45.09356" lon="5.54041">
        <ele>1331.8</ele>
        <time>2022-07-08T12:27:41.159Z</time>
      </trkpt>
      <trkpt lat="45.09356" lon="5.54027">
        <ele>1334.3</ele>
        <time>2022-07-08T12:27:50.231Z</time>
      </trkpt>
      <trkpt lat="45.09354" lon="5.54013">
        <ele>1336</ele>
        <time>2022-07-08T12:27:59.486Z</time>
      </trkpt>
      <trkpt lat="45.09356" lon="5.53998">
        <ele>1337.7</ele>
        <time>2022-07-08T12:28:09.378Z</time>
      </trkpt>
      <trkpt lat="45.09358" lon="5.53985">
        <ele>1339.4</ele>
        <time>2022-07-08T12:28:18.000Z</time>
      </trkpt>
      <trkpt lat="45.0936" lon="5.53972">
        <ele>1341.1</ele>
        <time>2022-07-08T12:28:26.621Z</time>
      </trkpt>
      <trkpt lat="45.09357" lon="5.53959">
        <ele>1342.3</ele>
        <time>2022-07-08T12:28:34.449Z</time>
      </trkpt>
      <trkpt lat="45.09353" lon="5.5394">
        <ele>1344.3</ele>
        <time>2022-07-08T12:28:47.296Z</time>
      </trkpt>
      <trkpt lat="45.09359" lon="5.53927">
        <ele>1345.1</ele>
        <time>2022-07-08T12:28:52.667Z</time>
      </trkpt>
      <trkpt lat="45.09357" lon="5.53915">
        <ele>1346.4</ele>
        <time>2022-07-08T12:29:00.656Z</time>
      </trkpt>
      <trkpt lat="45.0936" lon="5.53905">
        <ele>1346.5</ele>
        <time>2022-07-08T12:29:02.729Z</time>
      </trkpt>
      <trkpt lat="45.0936" lon="5.53889">
        <ele>1347.1</ele>
        <time>2022-07-08T12:29:07.527Z</time>
      </trkpt>
      <trkpt lat="45.0936" lon="5.53876">
        <ele>1347.1</ele>
        <time>2022-07-08T12:29:09.711Z</time>
      </trkpt>
      <trkpt lat="45.09359" lon="5.5386">
        <ele>1347.2</ele>
        <time>2022-07-08T12:29:12.647Z</time>
      </trkpt>
      <trkpt lat="45.09356" lon="5.53852">
        <ele>1347.2</ele>
        <time>2022-07-08T12:29:14.169Z</time>
      </trkpt>
      <trkpt lat="45.09356" lon="5.53854">
        <ele>1347.2</ele>
        <time>2022-07-08T12:29:14.505Z</time>
      </trkpt>
      <trkpt lat="45.09359" lon="5.53845">
        <ele>1346.6</ele>
        <time>2022-07-08T12:29:15.228Z</time>
      </trkpt>
      <trkpt lat="45.09391" lon="5.53834">
        <ele>1343.9</ele>
        <time>2022-07-08T12:29:18.616Z</time>
      </trkpt>
      <trkpt lat="45.09421" lon="5.53825">
        <ele>1340.9</ele>
        <time>2022-07-08T12:29:21.772Z</time>
      </trkpt>
      <trkpt lat="45.09445" lon="5.53797">
        <ele>1336.3</ele>
        <time>2022-07-08T12:29:24.972Z</time>
      </trkpt>
      <trkpt lat="45.09463" lon="5.53802">
        <ele>1334.7</ele>
        <time>2022-07-08T12:29:26.859Z</time>
      </trkpt>
      <trkpt lat="45.09496" lon="5.53811">
        <ele>1331</ele>
        <time>2022-07-08T12:29:30.317Z</time>
      </trkpt>
      <trkpt lat="45.09515" lon="5.53818">
        <ele>1328.2</ele>
        <time>2022-07-08T12:29:32.338Z</time>
      </trkpt>
      <trkpt lat="45.09552" lon="5.53832">
        <ele>1323.4</ele>
        <time>2022-07-08T12:29:36.279Z</time>
      </trkpt>
      <trkpt lat="45.09577" lon="5.53843">
        <ele>1322</ele>
        <time>2022-07-08T12:29:39.021Z</time>
      </trkpt>
      <trkpt lat="45.096" lon="5.53887">
        <ele>1324.7</ele>
        <time>2022-07-08T12:29:57.509Z</time>
      </trkpt>
      <trkpt lat="45.09624" lon="5.53906">
        <ele>1323.2</ele>
        <time>2022-07-08T12:30:00.362Z</time>
      </trkpt>
      <trkpt lat="45.09655" lon="5.53873">
        <ele>1317.5</ele>
        <time>2022-07-08T12:30:04.353Z</time>
      </trkpt>
      <trkpt lat="45.09691" lon="5.53845">
        <ele>1308.3</ele>
        <time>2022-07-08T12:30:08.579Z</time>
      </trkpt>
      <trkpt lat="45.09722" lon="5.53855">
        <ele>1303.4</ele>
        <time>2022-07-08T12:30:11.851Z</time>
      </trkpt>
      <trkpt lat="45.0975" lon="5.53885">
        <ele>1299.9</ele>
        <time>2022-07-08T12:30:15.463Z</time>
      </trkpt>
      <trkpt lat="45.0978" lon="5.53894">
        <ele>1294.5</ele>
        <time>2022-07-08T12:30:18.619Z</time>
      </trkpt>
      <trkpt lat="45.09828" lon="5.53915">
        <ele>1286.8</ele>
        <time>2022-07-08T12:30:23.789Z</time>
      </trkpt>
      <trkpt lat="45.09867" lon="5.53928">
        <ele>1278.7</ele>
        <time>2022-07-08T12:30:27.912Z</time>
      </trkpt>
      <trkpt lat="45.09868" lon="5.53964">
        <ele>1275.3</ele>
        <time>2022-07-08T12:30:30.529Z</time>
      </trkpt>
      <trkpt lat="45.09857" lon="5.53997">
        <ele>1273.3</ele>
        <time>2022-07-08T12:30:33.180Z</time>
      </trkpt>
      <trkpt lat="45.09876" lon="5.54026">
        <ele>1264.1</ele>
        <time>2022-07-08T12:30:36.054Z</time>
      </trkpt>
      <trkpt lat="45.09907" lon="5.54026">
        <ele>1258</ele>
        <time>2022-07-08T12:30:39.244Z</time>
      </trkpt>
      <trkpt lat="45.09932" lon="5.54041">
        <ele>1252.1</ele>
        <time>2022-07-08T12:30:42.038Z</time>
      </trkpt>
      <trkpt lat="45.09966" lon="5.54061">
        <ele>1245.7</ele>
        <time>2022-07-08T12:30:45.826Z</time>
      </trkpt>
      <trkpt lat="45.09988" lon="5.54056">
        <ele>1242.2</ele>
        <time>2022-07-08T12:30:48.119Z</time>
      </trkpt>
      <trkpt lat="45.10013" lon="5.54074">
        <ele>1238</ele>
        <time>2022-07-08T12:30:51.005Z</time>
      </trkpt>
      <trkpt lat="45.10083" lon="5.54112">
        <ele>1232.1</ele>
        <time>2022-07-08T12:30:58.719Z</time>
      </trkpt>
      <trkpt lat="45.10106" lon="5.5413">
        <ele>1233.5</ele>
        <time>2022-07-08T12:31:09.893Z</time>
      </trkpt>
      <trkpt lat="45.10092" lon="5.54151">
        <ele>1236.6</ele>
        <time>2022-07-08T12:31:28.608Z</time>
      </trkpt>
      <trkpt lat="45.10084" lon="5.54164">
        <ele>1238.6</ele>
        <time>2022-07-08T12:31:39.782Z</time>
      </trkpt>
      <trkpt lat="45.10084" lon="5.54178">
        <ele>1239.8</ele>
        <time>2022-07-08T12:31:47.512Z</time>
      </trkpt>
      <trkpt lat="45.10091" lon="5.54188">
        <ele>1240.5</ele>
        <time>2022-07-08T12:31:52.288Z</time>
      </trkpt>
      <trkpt lat="45.10104" lon="5.54188">
        <ele>1240.4</ele>
        <time>2022-07-08T12:31:54.504Z</time>
      </trkpt>
      <trkpt lat="45.10113" lon="5.54206">
        <ele>1241.4</ele>
        <time>2022-07-08T12:32:01.649Z</time>
      </trkpt>
      <trkpt lat="45.10141" lon="5.54197">
        <ele>1241.2</ele>
        <time>2022-07-08T12:32:07.822Z</time>
      </trkpt>
      <trkpt lat="45.10163" lon="5.54201">
        <ele>1241.3</ele>
        <time>2022-07-08T12:32:13.328Z</time>
      </trkpt>
      <trkpt lat="45.10192" lon="5.54221">
        <ele>1241</ele>
        <time>2022-07-08T12:32:18.708Z</time>
      </trkpt>
      <trkpt lat="45.10204" lon="5.54208">
        <ele>1240.1</ele>
        <time>2022-07-08T12:32:20.213Z</time>
      </trkpt>
      <trkpt lat="45.1021" lon="5.54197">
        <ele>1239.5</ele>
        <time>2022-07-08T12:32:21.178Z</time>
      </trkpt>
      <trkpt lat="45.1021" lon="5.54216">
        <ele>1240.2</ele>
        <time>2022-07-08T12:32:26.840Z</time>
      </trkpt>
      <trkpt lat="45.10216" lon="5.5423">
        <ele>1240.2</ele>
        <time>2022-07-08T12:32:29.591Z</time>
      </trkpt>
      <trkpt lat="45.10216" lon="5.54187">
        <ele>1238.7</ele>
        <time>2022-07-08T12:32:32.883Z</time>
      </trkpt>
      <trkpt lat="45.10219" lon="5.54155">
        <ele>1236.2</ele>
        <time>2022-07-08T12:32:35.228Z</time>
      </trkpt>
      <trkpt lat="45.10228" lon="5.5412">
        <ele>1233.4</ele>
        <time>2022-07-08T12:32:37.933Z</time>
      </trkpt>
      <trkpt lat="45.10255" lon="5.54099">
        <ele>1231.1</ele>
        <time>2022-07-08T12:32:41.103Z</time>
      </trkpt>
      <trkpt lat="45.10276" lon="5.54102">
        <ele>1231.3</ele>
        <time>2022-07-08T12:32:46.603Z</time>
      </trkpt>
      <trkpt lat="45.10292" lon="5.54084">
        <ele>1229.5</ele>
        <time>2022-07-08T12:32:48.705Z</time>
      </trkpt>
      <trkpt lat="45.103" lon="5.54087">
        <ele>1229.4</ele>
        <time>2022-07-08T12:32:50.036Z</time>
      </trkpt>
      <trkpt lat="45.10307" lon="5.54072">
        <ele>1228.6</ele>
        <time>2022-07-08T12:32:51.267Z</time>
      </trkpt>
      <trkpt lat="45.10313" lon="5.54048">
        <ele>1227.8</ele>
        <time>2022-07-08T12:32:53.303Z</time>
      </trkpt>
      <trkpt lat="45.10298" lon="5.54002">
        <ele>1225.8</ele>
        <time>2022-07-08T12:32:56.973Z</time>
      </trkpt>
      <trkpt lat="45.10274" lon="5.53951">
        <ele>1220</ele>
        <time>2022-07-08T12:33:01.426Z</time>
      </trkpt>
      <trkpt lat="45.1028" lon="5.53872">
        <ele>1208.5</ele>
        <time>2022-07-08T12:33:07.197Z</time>
      </trkpt>
      <trkpt lat="45.10262" lon="5.53868">
        <ele>1204.3</ele>
        <time>2022-07-08T12:33:09.072Z</time>
      </trkpt>
      <trkpt lat="45.10257" lon="5.53838">
        <ele>1200</ele>
        <time>2022-07-08T12:33:11.311Z</time>
      </trkpt>
      <trkpt lat="45.10272" lon="5.53795">
        <ele>1197</ele>
        <time>2022-07-08T12:33:14.795Z</time>
      </trkpt>
      <trkpt lat="45.10283" lon="5.53756">
        <ele>1193.8</ele>
        <time>2022-07-08T12:33:17.845Z</time>
      </trkpt>
      <trkpt lat="45.10299" lon="5.53729">
        <ele>1188.8</ele>
        <time>2022-07-08T12:33:20.406Z</time>
      </trkpt>
      <trkpt lat="45.10323" lon="5.53684">
        <ele>1181.1</ele>
        <time>2022-07-08T12:33:24.503Z</time>
      </trkpt>
      <trkpt lat="45.10339" lon="5.53646">
        <ele>1174.5</ele>
        <time>2022-07-08T12:33:27.716Z</time>
      </trkpt>
      <trkpt lat="45.1035" lon="5.53597">
        <ele>1165.7</ele>
        <time>2022-07-08T12:33:31.451Z</time>
      </trkpt>
      <trkpt lat="45.10352" lon="5.5355">
        <ele>1153.8</ele>
        <time>2022-07-08T12:33:34.871Z</time>
      </trkpt>
      <trkpt lat="45.10345" lon="5.53503">
        <ele>1141.1</ele>
        <time>2022-07-08T12:33:38.360Z</time>
      </trkpt>
      <trkpt lat="45.10365" lon="5.53516">
        <ele>1144.9</ele>
        <time>2022-07-08T12:33:58.558Z</time>
      </trkpt>
      <trkpt lat="45.10371" lon="5.53489">
        <ele>1139.1</ele>
        <time>2022-07-08T12:34:00.614Z</time>
      </trkpt>
      <trkpt lat="45.1037" lon="5.53467">
        <ele>1132</ele>
        <time>2022-07-08T12:34:02.215Z</time>
      </trkpt>
      <trkpt lat="45.10368" lon="5.53442">
        <ele>1123.6</ele>
        <time>2022-07-08T12:34:04.043Z</time>
      </trkpt>
      <trkpt lat="45.10381" lon="5.53419">
        <ele>1120</ele>
        <time>2022-07-08T12:34:06.183Z</time>
      </trkpt>
      <trkpt lat="45.104" lon="5.53374">
        <ele>1112.5</ele>
        <time>2022-07-08T12:34:09.992Z</time>
      </trkpt>
      <trkpt lat="45.10403" lon="5.53346">
        <ele>1106</ele>
        <time>2022-07-08T12:34:12.049Z</time>
      </trkpt>
      <trkpt lat="45.10412" lon="5.53324">
        <ele>1103.4</ele>
        <time>2022-07-08T12:34:13.895Z</time>
      </trkpt>
      <trkpt lat="45.10404" lon="5.53295">
        <ele>1094.7</ele>
        <time>2022-07-08T12:34:16.157Z</time>
      </trkpt>
      <trkpt lat="45.10411" lon="5.53279">
        <ele>1092.5</ele>
        <time>2022-07-08T12:34:17.524Z</time>
      </trkpt>
      <trkpt lat="45.10396" lon="5.53283">
        <ele>1090.9</ele>
        <time>2022-07-08T12:34:19.095Z</time>
      </trkpt>
      <trkpt lat="45.10384" lon="5.533">
        <ele>1090.9</ele>
        <time>2022-07-08T12:34:23.133Z</time>
      </trkpt>
      <trkpt lat="45.10363" lon="5.53325">
        <ele>1089.1</ele>
        <time>2022-07-08T12:34:25.740Z</time>
      </trkpt>
      <trkpt lat="45.10356" lon="5.53299">
        <ele>1083.4</ele>
        <time>2022-07-08T12:34:27.761Z</time>
      </trkpt>
      <trkpt lat="45.10339" lon="5.53273">
        <ele>1078.5</ele>
        <time>2022-07-08T12:34:30.335Z</time>
      </trkpt>
      <trkpt lat="45.10273" lon="5.53222">
        <ele>1072.8</ele>
        <time>2022-07-08T12:34:38.072Z</time>
      </trkpt>
      <trkpt lat="45.10243" lon="5.53192">
        <ele>1066.7</ele>
        <time>2022-07-08T12:34:41.850Z</time>
      </trkpt>
      <trkpt lat="45.10234" lon="5.53163">
        <ele>1065</ele>
        <time>2022-07-08T12:34:44.151Z</time>
      </trkpt>
      <trkpt lat="45.10245" lon="5.5311">
        <ele>1065.9</ele>
        <time>2022-07-08T12:34:55.918Z</time>
      </trkpt>
      <trkpt lat="45.10261" lon="5.53048">
        <ele>1060.2</ele>
        <time>2022-07-08T12:35:00.713Z</time>
      </trkpt>
      <trkpt lat="45.10273" lon="5.53036">
        <ele>1060.6</ele>
        <time>2022-07-08T12:35:05.370Z</time>
      </trkpt>
      <trkpt lat="45.10276" lon="5.53025">
        <ele>1059.2</ele>
        <time>2022-07-08T12:35:06.227Z</time>
      </trkpt>
      <trkpt lat="45.10291" lon="5.52993">
        <ele>1053.3</ele>
        <time>2022-07-08T12:35:09.017Z</time>
      </trkpt>
      <trkpt lat="45.10305" lon="5.52971">
        <ele>1048.8</ele>
        <time>2022-07-08T12:35:11.169Z</time>
      </trkpt>
      <trkpt lat="45.10353" lon="5.52952">
        <ele>1035.5</ele>
        <time>2022-07-08T12:35:16.297Z</time>
      </trkpt>
      <trkpt lat="45.10408" lon="5.53042">
        <ele>1032</ele>
        <time>2022-07-08T12:35:26.072Z</time>
      </trkpt>
      <trkpt lat="45.10446" lon="5.5309">
        <ele>1030.9</ele>
        <time>2022-07-08T12:35:33.360Z</time>
      </trkpt>
      <trkpt lat="45.10513" lon="5.5314">
        <ele>1030.1</ele>
        <time>2022-07-08T12:35:45.781Z</time>
      </trkpt>
      <trkpt lat="45.10559" lon="5.53165">
        <ele>1028.7</ele>
        <time>2022-07-08T12:35:52.322Z</time>
      </trkpt>
      <trkpt lat="45.106" lon="5.53187">
        <ele>1029.9</ele>
        <time>2022-07-08T12:36:06.246Z</time>
      </trkpt>
      <trkpt lat="45.10631" lon="5.53164">
        <ele>1023.7</ele>
        <time>2022-07-08T12:36:09.847Z</time>
      </trkpt>
      <trkpt lat="45.10652" lon="5.53145">
        <ele>1020.6</ele>
        <time>2022-07-08T12:36:12.411Z</time>
      </trkpt>
      <trkpt lat="45.10719" lon="5.53113">
        <ele>1019.4</ele>
        <time>2022-07-08T12:36:23.104Z</time>
      </trkpt>
      <trkpt lat="45.10776" lon="5.53104">
        <ele>1019.4</ele>
        <time>2022-07-08T12:36:36.753Z</time>
      </trkpt>
      <trkpt lat="45.1081" lon="5.53105">
        <ele>1020.4</ele>
        <time>2022-07-08T12:36:47.829Z</time>
      </trkpt>
      <trkpt lat="45.10833" lon="5.53107">
        <ele>1021.8</ele>
        <time>2022-07-08T12:36:58.144Z</time>
      </trkpt>
      <trkpt lat="45.10882" lon="5.53099">
        <ele>1016.8</ele>
        <time>2022-07-08T12:37:03.220Z</time>
      </trkpt>
      <trkpt lat="45.10968" lon="5.53119">
        <ele>1011</ele>
        <time>2022-07-08T12:37:11.443Z</time>
      </trkpt>
      <trkpt lat="45.11015" lon="5.53141">
        <ele>1006.2</ele>
        <time>2022-07-08T12:37:16.537Z</time>
      </trkpt>
      <trkpt lat="45.11097" lon="5.53167">
        <ele>993</ele>
        <time>2022-07-08T12:37:25.184Z</time>
      </trkpt>
      <trkpt lat="45.11169" lon="5.53228">
        <ele>980.2</ele>
        <time>2022-07-08T12:37:33.816Z</time>
      </trkpt>
      <trkpt lat="45.11218" lon="5.53264">
        <ele>968.8</ele>
        <time>2022-07-08T12:37:39.496Z</time>
      </trkpt>
      <trkpt lat="45.11321" lon="5.53284">
        <ele>960.1</ele>
        <time>2022-07-08T12:37:50.195Z</time>
      </trkpt>
      <trkpt lat="45.11376" lon="5.53365">
        <ele>959.8</ele>
        <time>2022-07-08T12:38:08.038Z</time>
      </trkpt>
      <trkpt lat="45.11411" lon="5.53402">
        <ele>960.5</ele>
        <time>2022-07-08T12:38:20.218Z</time>
      </trkpt>
      <trkpt lat="45.11494" lon="5.53413">
        <ele>959.2</ele>
        <time>2022-07-08T12:38:33.040Z</time>
      </trkpt>
      <trkpt lat="45.11521" lon="5.53381">
        <ele>959.5</ele>
        <time>2022-07-08T12:38:42.126Z</time>
      </trkpt>
      <trkpt lat="45.11569" lon="5.53382">
        <ele>959.8</ele>
        <time>2022-07-08T12:38:54.243Z</time>
      </trkpt>
      <trkpt lat="45.11605" lon="5.53399">
        <ele>959.5</ele>
        <time>2022-07-08T12:39:00.693Z</time>
      </trkpt>
      <trkpt lat="45.1167" lon="5.53454">
        <ele>960.3</ele>
        <time>2022-07-08T12:39:20.640Z</time>
      </trkpt>
      <trkpt lat="45.11726" lon="5.53462">
        <ele>961</ele>
        <time>2022-07-08T12:39:35.756Z</time>
      </trkpt>
      <trkpt lat="45.11763" lon="5.5351">
        <ele>961.2</ele>
        <time>2022-07-08T12:39:48.146Z</time>
      </trkpt>
      <trkpt lat="45.11789" lon="5.5355">
        <ele>962</ele>
        <time>2022-07-08T12:39:59.434Z</time>
      </trkpt>
      <trkpt lat="45.11844" lon="5.53635">
        <ele>963</ele>
        <time>2022-07-08T12:40:21.256Z</time>
      </trkpt>
      <trkpt lat="45.11865" lon="5.53664">
        <ele>963.9</ele>
        <time>2022-07-08T12:40:30.963Z</time>
      </trkpt>
      <trkpt lat="45.11883" lon="5.53682">
        <ele>964.4</ele>
        <time>2022-07-08T12:40:37.581Z</time>
      </trkpt>
      <trkpt lat="45.11901" lon="5.53701">
        <ele>966</ele>
        <time>2022-07-08T12:40:48.434Z</time>
      </trkpt>
      <trkpt lat="45.11918" lon="5.53718">
        <ele>967</ele>
        <time>2022-07-08T12:40:56.984Z</time>
      </trkpt>
      <trkpt lat="45.11935" lon="5.53734">
        <ele>968.1</ele>
        <time>2022-07-08T12:41:05.698Z</time>
      </trkpt>
      <trkpt lat="45.11951" lon="5.53744">
        <ele>969.3</ele>
        <time>2022-07-08T12:41:13.986Z</time>
      </trkpt>
      <trkpt lat="45.11962" lon="5.53756">
        <ele>970.3</ele>
        <time>2022-07-08T12:41:20.737Z</time>
      </trkpt>
      <trkpt lat="45.11977" lon="5.53772">
        <ele>971.5</ele>
        <time>2022-07-08T12:41:29.333Z</time>
      </trkpt>
      <trkpt lat="45.11992" lon="5.53781">
        <ele>973.1</ele>
        <time>2022-07-08T12:41:39.242Z</time>
      </trkpt>
      <trkpt lat="45.12006" lon="5.53789">
        <ele>974.2</ele>
        <time>2022-07-08T12:41:46.630Z</time>
      </trkpt>
      <trkpt lat="45.12023" lon="5.53798">
        <ele>975.2</ele>
        <time>2022-07-08T12:41:54.443Z</time>
      </trkpt>
      <trkpt lat="45.12042" lon="5.53807">
        <ele>975.9</ele>
        <time>2022-07-08T12:42:01.454Z</time>
      </trkpt>
      <trkpt lat="45.12106" lon="5.53813">
        <ele>976.9</ele>
        <time>2022-07-08T12:42:19.261Z</time>
      </trkpt>
      <trkpt lat="45.12191" lon="5.53827">
        <ele>976.9</ele>
        <time>2022-07-08T12:42:39.625Z</time>
      </trkpt>
      <trkpt lat="45.12249" lon="5.53834">
        <ele>977</ele>
        <time>2022-07-08T12:42:53.699Z</time>
      </trkpt>
      <trkpt lat="45.12273" lon="5.53849">
        <ele>978.2</ele>
        <time>2022-07-08T12:43:04.317Z</time>
      </trkpt>
      <trkpt lat="45.12288" lon="5.53861">
        <ele>980.5</ele>
        <time>2022-07-08T12:43:20.128Z</time>
      </trkpt>
      <trkpt lat="45.12301" lon="5.53868">
        <ele>982.6</ele>
        <time>2022-07-08T12:43:32.893Z</time>
      </trkpt>
      <trkpt lat="45.12317" lon="5.53872">
        <ele>984.9</ele>
        <time>2022-07-08T12:43:47.806Z</time>
      </trkpt>
      <trkpt lat="45.12332" lon="5.5387">
        <ele>986.8</ele>
        <time>2022-07-08T12:44:00.311Z</time>
      </trkpt>
      <trkpt lat="45.12346" lon="5.53866">
        <ele>987</ele>
        <time>2022-07-08T12:44:04.210Z</time>
      </trkpt>
      <trkpt lat="45.12363" lon="5.53861">
        <ele>987</ele>
        <time>2022-07-08T12:44:08.342Z</time>
      </trkpt>
      <trkpt lat="45.12403" lon="5.5385">
        <ele>986.1</ele>
        <time>2022-07-08T12:44:14.143Z</time>
      </trkpt>
      <trkpt lat="45.12494" lon="5.53841">
        <ele>985.8</ele>
        <time>2022-07-08T12:44:34.810Z</time>
      </trkpt>
      <trkpt lat="45.12548" lon="5.53839">
        <ele>984.2</ele>
        <time>2022-07-08T12:44:41.891Z</time>
      </trkpt>
      <trkpt lat="45.12673" lon="5.53775">
        <ele>984.1</ele>
        <time>2022-07-08T12:45:13.158Z</time>
      </trkpt>
      <trkpt lat="45.12708" lon="5.53756">
        <ele>985.6</ele>
        <time>2022-07-08T12:45:27.240Z</time>
      </trkpt>
      <trkpt lat="45.12742" lon="5.53743">
        <ele>987.7</ele>
        <time>2022-07-08T12:45:42.880Z</time>
      </trkpt>
      <trkpt lat="45.12766" lon="5.53742">
        <ele>989.7</ele>
        <time>2022-07-08T12:45:55.659Z</time>
      </trkpt>
      <trkpt lat="45.12784" lon="5.5374">
        <ele>991.4</ele>
        <time>2022-07-08T12:46:06.230Z</time>
      </trkpt>
      <trkpt lat="45.128" lon="5.53735">
        <ele>992.4</ele>
        <time>2022-07-08T12:46:13.579Z</time>
      </trkpt>
      <trkpt lat="45.12819" lon="5.53737">
        <ele>992.8</ele>
        <time>2022-07-08T12:46:19.193Z</time>
      </trkpt>
      <trkpt lat="45.12843" lon="5.53743">
        <ele>993.7</ele>
        <time>2022-07-08T12:46:27.957Z</time>
      </trkpt>
      <trkpt lat="45.12867" lon="5.53754">
        <ele>994.6</ele>
        <time>2022-07-08T12:46:36.874Z</time>
      </trkpt>
      <trkpt lat="45.12886" lon="5.53764">
        <ele>994.5</ele>
        <time>2022-07-08T12:46:41.358Z</time>
      </trkpt>
      <trkpt lat="45.12906" lon="5.53775">
        <ele>996.1</ele>
        <time>2022-07-08T12:46:51.998Z</time>
      </trkpt>
      <trkpt lat="45.12935" lon="5.53793">
        <ele>997.1</ele>
        <time>2022-07-08T12:47:02.600Z</time>
      </trkpt>
      <trkpt lat="45.12966" lon="5.5381">
        <ele>999.9</ele>
        <time>2022-07-08T12:47:20.431Z</time>
      </trkpt>
      <trkpt lat="45.12983" lon="5.53817">
        <ele>1000.6</ele>
        <time>2022-07-08T12:47:27.036Z</time>
      </trkpt>
      <trkpt lat="45.12999" lon="5.53828">
        <ele>1002.3</ele>
        <time>2022-07-08T12:47:37.588Z</time>
      </trkpt>
      <trkpt lat="45.13018" lon="5.5384">
        <ele>1004.4</ele>
        <time>2022-07-08T12:47:50.582Z</time>
      </trkpt>
      <trkpt lat="45.13033" lon="5.53851">
        <ele>1006.6</ele>
        <time>2022-07-08T12:48:05.405Z</time>
      </trkpt>
      <trkpt lat="45.13048" lon="5.53861">
        <ele>1009.2</ele>
        <time>2022-07-08T12:48:20.620Z</time>
      </trkpt>
      <trkpt lat="45.13067" lon="5.53869">
        <ele>1011.1</ele>
        <time>2022-07-08T12:48:32.411Z</time>
      </trkpt>
      <trkpt lat="45.13083" lon="5.53873">
        <ele>1012.3</ele>
        <time>2022-07-08T12:48:40.424Z</time>
      </trkpt>
      <trkpt lat="45.131" lon="5.53874">
        <ele>1013.3</ele>
        <time>2022-07-08T12:48:47.936Z</time>
      </trkpt>
      <trkpt lat="45.13116" lon="5.53873">
        <ele>1014</ele>
        <time>2022-07-08T12:48:54.291Z</time>
      </trkpt>
      <trkpt lat="45.13135" lon="5.53873">
        <ele>1014.3</ele>
        <time>2022-07-08T12:48:59.577Z</time>
      </trkpt>
      <trkpt lat="45.13143" lon="5.53912">
        <ele>1013.9</ele>
        <time>2022-07-08T12:49:04.076Z</time>
      </trkpt>
      <trkpt lat="45.13172" lon="5.54067">
        <ele>1002.7</ele>
        <time>2022-07-08T12:49:15.717Z</time>
      </trkpt>
      <trkpt lat="45.13212" lon="5.5416">
        <ele>1002</ele>
        <time>2022-07-08T12:49:28.567Z</time>
      </trkpt>
      <trkpt lat="45.13237" lon="5.54215">
        <ele>1002.8</ele>
        <time>2022-07-08T12:49:41.624Z</time>
      </trkpt>
      <trkpt lat="45.13233" lon="5.54237">
        <ele>1002.2</ele>
        <time>2022-07-08T12:49:43.565Z</time>
      </trkpt>
      <trkpt lat="45.13234" lon="5.54232">
        <ele>1002.3</ele>
        <time>2022-07-08T12:49:44.728Z</time>
      </trkpt>
      <trkpt lat="45.13234" lon="5.5423">
        <ele>1002.3</ele>
        <time>2022-07-08T12:49:45.064Z</time>
      </trkpt>
      <trkpt lat="45.1327" lon="5.54233">
        <ele>1002.8</ele>
        <time>2022-07-08T12:49:54.894Z</time>
      </trkpt>
      <trkpt lat="45.13371" lon="5.5424">
        <ele>1004.3</ele>
        <time>2022-07-08T12:50:22.742Z</time>
      </trkpt>
      <trkpt lat="45.13407" lon="5.54252">
        <ele>1006.1</ele>
        <time>2022-07-08T12:50:37.998Z</time>
      </trkpt>
      <trkpt lat="45.13445" lon="5.54275">
        <ele>1006.3</ele>
        <time>2022-07-08T12:50:48.287Z</time>
      </trkpt>
      <trkpt lat="45.13468" lon="5.54297">
        <ele>1005.6</ele>
        <time>2022-07-08T12:50:52.101Z</time>
      </trkpt>
      <trkpt lat="45.13511" lon="5.54312">
        <ele>1007.1</ele>
        <time>2022-07-08T12:51:07.379Z</time>
      </trkpt>
      <trkpt lat="45.13608" lon="5.54374">
        <ele>1009.8</ele>
        <time>2022-07-08T12:51:40.368Z</time>
      </trkpt>
      <trkpt lat="45.13676" lon="5.54436">
        <ele>1012.2</ele>
        <time>2022-07-08T12:52:06.793Z</time>
      </trkpt>
      <trkpt lat="45.13719" lon="5.54454">
        <ele>1013.2</ele>
        <time>2022-07-08T12:52:20.203Z</time>
      </trkpt>
      <trkpt lat="45.13747" lon="5.54462">
        <ele>1013.6</ele>
        <time>2022-07-08T12:52:28.000Z</time>
      </trkpt>
      <trkpt lat="45.13774" lon="5.5448">
        <ele>1014.2</ele>
        <time>2022-07-08T12:52:36.703Z</time>
      </trkpt>
      <trkpt lat="45.13797" lon="5.5449">
        <ele>1014.9</ele>
        <time>2022-07-08T12:52:44.509Z</time>
      </trkpt>
      <trkpt lat="45.1382" lon="5.54492">
        <ele>1016.3</ele>
        <time>2022-07-08T12:52:54.824Z</time>
      </trkpt>
      <trkpt lat="45.13841" lon="5.54492">
        <ele>1017.8</ele>
        <time>2022-07-08T12:53:04.990Z</time>
      </trkpt>
      <trkpt lat="45.13864" lon="5.54494">
        <ele>1019.4</ele>
        <time>2022-07-08T12:53:15.977Z</time>
      </trkpt>
      <trkpt lat="45.13883" lon="5.54496">
        <ele>1020.7</ele>
        <time>2022-07-08T12:53:24.981Z</time>
      </trkpt>
      <trkpt lat="45.139" lon="5.54497">
        <ele>1022.3</ele>
        <time>2022-07-08T12:53:34.932Z</time>
      </trkpt>
      <trkpt lat="45.13919" lon="5.54497">
        <ele>1024.1</ele>
        <time>2022-07-08T12:53:46.117Z</time>
      </trkpt>
      <trkpt lat="45.13935" lon="5.54505">
        <ele>1024.5</ele>
        <time>2022-07-08T12:53:51.266Z</time>
      </trkpt>
      <trkpt lat="45.1394" lon="5.54526">
        <ele>1023.9</ele>
        <time>2022-07-08T12:53:53.142Z</time>
      </trkpt>
      <trkpt lat="45.13945" lon="5.54552">
        <ele>1024.9</ele>
        <time>2022-07-08T12:54:01.190Z</time>
      </trkpt>
      <trkpt lat="45.13952" lon="5.54579">
        <ele>1026.1</ele>
        <time>2022-07-08T12:54:10.171Z</time>
      </trkpt>
      <trkpt lat="45.1396" lon="5.54598">
        <ele>1027.9</ele>
        <time>2022-07-08T12:54:21.525Z</time>
      </trkpt>
      <trkpt lat="45.13958" lon="5.54619">
        <ele>1030.1</ele>
        <time>2022-07-08T12:54:35.245Z</time>
      </trkpt>
      <trkpt lat="45.1395" lon="5.54639">
        <ele>1032.4</ele>
        <time>2022-07-08T12:54:50.132Z</time>
      </trkpt>
      <trkpt lat="45.13943" lon="5.54658">
        <ele>1034.6</ele>
        <time>2022-07-08T12:55:04.011Z</time>
      </trkpt>
      <trkpt lat="45.13936" lon="5.54676">
        <ele>1036.5</ele>
        <time>2022-07-08T12:55:16.875Z</time>
      </trkpt>
      <trkpt lat="45.13931" lon="5.54692">
        <ele>1038.2</ele>
        <time>2022-07-08T12:55:28.206Z</time>
      </trkpt>
      <trkpt lat="45.13924" lon="5.54706">
        <ele>1039.9</ele>
        <time>2022-07-08T12:55:39.317Z</time>
      </trkpt>
      <trkpt lat="45.13915" lon="5.54717">
        <ele>1041.2</ele>
        <time>2022-07-08T12:55:47.412Z</time>
      </trkpt>
      <trkpt lat="45.13906" lon="5.54728">
        <ele>1042.9</ele>
        <time>2022-07-08T12:55:58.319Z</time>
      </trkpt>
      <trkpt lat="45.13896" lon="5.54739">
        <ele>1044.9</ele>
        <time>2022-07-08T12:56:09.937Z</time>
      </trkpt>
      <trkpt lat="45.13883" lon="5.54747">
        <ele>1046.4</ele>
        <time>2022-07-08T12:56:19.237Z</time>
      </trkpt>
      <trkpt lat="45.13872" lon="5.54751">
        <ele>1047.3</ele>
        <time>2022-07-08T12:56:25.083Z</time>
      </trkpt>
      <trkpt lat="45.1386" lon="5.54753">
        <ele>1047.8</ele>
        <time>2022-07-08T12:56:29.713Z</time>
      </trkpt>
      <trkpt lat="45.13846" lon="5.54756">
        <ele>1048.8</ele>
        <time>2022-07-08T12:56:36.526Z</time>
      </trkpt>
      <trkpt lat="45.13835" lon="5.54759">
        <ele>1049.6</ele>
        <time>2022-07-08T12:56:41.948Z</time>
      </trkpt>
      <trkpt lat="45.13825" lon="5.54763">
        <ele>1050</ele>
        <time>2022-07-08T12:56:45.767Z</time>
      </trkpt>
      <trkpt lat="45.13813" lon="5.54767">
        <ele>1050.3</ele>
        <time>2022-07-08T12:56:49.542Z</time>
      </trkpt>
      <trkpt lat="45.138" lon="5.54772">
        <ele>1050.6</ele>
        <time>2022-07-08T12:56:53.569Z</time>
      </trkpt>
      <trkpt lat="45.13791" lon="5.54777">
        <ele>1050.8</ele>
        <time>2022-07-08T12:56:56.408Z</time>
      </trkpt>
      <trkpt lat="45.13786" lon="5.54792">
        <ele>1052.8</ele>
        <time>2022-07-08T12:57:07.150Z</time>
      </trkpt>
      <trkpt lat="45.13783" lon="5.54814">
        <ele>1056.3</ele>
        <time>2022-07-08T12:57:21.658Z</time>
      </trkpt>
      <trkpt lat="45.13778" lon="5.5483">
        <ele>1059.3</ele>
        <time>2022-07-08T12:57:32.989Z</time>
      </trkpt>
      <trkpt lat="45.13771" lon="5.54838">
        <ele>1060.3</ele>
        <time>2022-07-08T12:57:39.236Z</time>
      </trkpt>
      <trkpt lat="45.13765" lon="5.54845">
        <ele>1061.3</ele>
        <time>2022-07-08T12:57:45.911Z</time>
      </trkpt>
      <trkpt lat="45.13755" lon="5.5485">
        <ele>1061.6</ele>
        <time>2022-07-08T12:57:49.317Z</time>
      </trkpt>
      <trkpt lat="45.13742" lon="5.54857">
        <ele>1062.7</ele>
        <time>2022-07-08T12:57:56.467Z</time>
      </trkpt>
      <trkpt lat="45.1373" lon="5.54861">
        <ele>1063.3</ele>
        <time>2022-07-08T12:58:01.552Z</time>
      </trkpt>
      <trkpt lat="45.13709" lon="5.54866">
        <ele>1066.7</ele>
        <time>2022-07-08T12:58:21.098Z</time>
      </trkpt>
      <trkpt lat="45.13693" lon="5.54859">
        <ele>1067.8</ele>
        <time>2022-07-08T12:58:28.864Z</time>
      </trkpt>
      <trkpt lat="45.13677" lon="5.54857">
        <ele>1070.7</ele>
        <time>2022-07-08T12:58:43.608Z</time>
      </trkpt>
      <trkpt lat="45.13667" lon="5.54852">
        <ele>1071.6</ele>
        <time>2022-07-08T12:58:49.327Z</time>
      </trkpt>
      <trkpt lat="45.13654" lon="5.54844">
        <ele>1071.7</ele>
        <time>2022-07-08T12:58:52.932Z</time>
      </trkpt>
      <trkpt lat="45.13645" lon="5.54837">
        <ele>1071.1</ele>
        <time>2022-07-08T12:58:53.964Z</time>
      </trkpt>
      <trkpt lat="45.13628" lon="5.54837">
        <ele>1072.8</ele>
        <time>2022-07-08T12:59:04.485Z</time>
      </trkpt>
      <trkpt lat="45.13616" lon="5.54847">
        <ele>1076.6</ele>
        <time>2022-07-08T12:59:17.262Z</time>
      </trkpt>
      <trkpt lat="45.13604" lon="5.54851">
        <ele>1078.3</ele>
        <time>2022-07-08T12:59:28.577Z</time>
      </trkpt>
      <trkpt lat="45.1359" lon="5.54849">
        <ele>1077.9</ele>
        <time>2022-07-08T12:59:30.445Z</time>
      </trkpt>
      <trkpt lat="45.13577" lon="5.54853">
        <ele>1079.1</ele>
        <time>2022-07-08T12:59:37.960Z</time>
      </trkpt>
      <trkpt lat="45.13562" lon="5.54854">
        <ele>1078.9</ele>
        <time>2022-07-08T12:59:40.337Z</time>
      </trkpt>
      <trkpt lat="45.13547" lon="5.54865">
        <ele>1081.6</ele>
        <time>2022-07-08T12:59:55.838Z</time>
      </trkpt>
      <trkpt lat="45.13534" lon="5.54871">
        <ele>1082.7</ele>
        <time>2022-07-08T13:00:02.946Z</time>
      </trkpt>
      <trkpt lat="45.13518" lon="5.54882">
        <ele>1085.1</ele>
        <time>2022-07-08T13:00:19.268Z</time>
      </trkpt>
      <trkpt lat="45.13504" lon="5.54895">
        <ele>1088.5</ele>
        <time>2022-07-08T13:00:34.630Z</time>
      </trkpt>
      <trkpt lat="45.13489" lon="5.54903">
        <ele>1090.1</ele>
        <time>2022-07-08T13:00:44.532Z</time>
      </trkpt>
      <trkpt lat="45.13478" lon="5.54913">
        <ele>1092.4</ele>
        <time>2022-07-08T13:00:56.527Z</time>
      </trkpt>
      <trkpt lat="45.13465" lon="5.54919">
        <ele>1092.9</ele>
        <time>2022-07-08T13:01:01.419Z</time>
      </trkpt>
      <trkpt lat="45.13454" lon="5.54934">
        <ele>1096</ele>
        <time>2022-07-08T13:01:15.430Z</time>
      </trkpt>
      <trkpt lat="45.13446" lon="5.54951">
        <ele>1100.3</ele>
        <time>2022-07-08T13:01:28.662Z</time>
      </trkpt>
      <trkpt lat="45.13435" lon="5.54965">
        <ele>1104.1</ele>
        <time>2022-07-08T13:01:42.231Z</time>
      </trkpt>
      <trkpt lat="45.13426" lon="5.54972">
        <ele>1105.6</ele>
        <time>2022-07-08T13:01:51.654Z</time>
      </trkpt>
      <trkpt lat="45.13417" lon="5.54976">
        <ele>1106.4</ele>
        <time>2022-07-08T13:01:56.739Z</time>
      </trkpt>
      <trkpt lat="45.13409" lon="5.54978">
        <ele>1106.8</ele>
        <time>2022-07-08T13:02:00.102Z</time>
      </trkpt>
      <trkpt lat="45.13395" lon="5.54984">
        <ele>1108.5</ele>
        <time>2022-07-08T13:02:10.854Z</time>
      </trkpt>
      <trkpt lat="45.13383" lon="5.54986">
        <ele>1109</ele>
        <time>2022-07-08T13:02:15.485Z</time>
      </trkpt>
      <trkpt lat="45.13367" lon="5.54994">
        <ele>1111.8</ele>
        <time>2022-07-08T13:02:31.058Z</time>
      </trkpt>
      <trkpt lat="45.13357" lon="5.54999">
        <ele>1113.6</ele>
        <time>2022-07-08T13:02:40.791Z</time>
      </trkpt>
      <trkpt lat="45.13343" lon="5.55006">
        <ele>1116.3</ele>
        <time>2022-07-08T13:02:54.418Z</time>
      </trkpt>
      <trkpt lat="45.13328" lon="5.55008">
        <ele>1117.3</ele>
        <time>2022-07-08T13:03:01.440Z</time>
      </trkpt>
      <trkpt lat="45.13317" lon="5.55013">
        <ele>1119.5</ele>
        <time>2022-07-08T13:03:12.044Z</time>
      </trkpt>
      <trkpt lat="45.13306" lon="5.55017">
        <ele>1121.1</ele>
        <time>2022-07-08T13:03:22.467Z</time>
      </trkpt>
      <trkpt lat="45.1329" lon="5.55022">
        <ele>1124.6</ele>
        <time>2022-07-08T13:03:37.506Z</time>
      </trkpt>
      <trkpt lat="45.13278" lon="5.55024">
        <ele>1126.6</ele>
        <time>2022-07-08T13:03:48.597Z</time>
      </trkpt>
      <trkpt lat="45.13266" lon="5.55028">
        <ele>1131.1</ele>
        <time>2022-07-08T13:03:59.912Z</time>
      </trkpt>
      <trkpt lat="45.13254" lon="5.55028">
        <ele>1134.1</ele>
        <time>2022-07-08T13:04:10.927Z</time>
      </trkpt>
      <trkpt lat="45.1323" lon="5.55028">
        <ele>1140.8</ele>
        <time>2022-07-08T13:04:32.957Z</time>
      </trkpt>
      <trkpt lat="45.13216" lon="5.55022">
        <ele>1143.1</ele>
        <time>2022-07-08T13:04:46.382Z</time>
      </trkpt>
      <trkpt lat="45.13205" lon="5.55012">
        <ele>1143.1</ele>
        <time>2022-07-08T13:04:49.491Z</time>
      </trkpt>
      <trkpt lat="45.13199" lon="5.55001">
        <ele>1141</ele>
        <time>2022-07-08T13:04:50.501Z</time>
      </trkpt>
      <trkpt lat="45.13193" lon="5.5499">
        <ele>1138.7</ele>
        <time>2022-07-08T13:04:51.510Z</time>
      </trkpt>
      <trkpt lat="45.13184" lon="5.54983">
        <ele>1138.3</ele>
        <time>2022-07-08T13:04:52.735Z</time>
      </trkpt>
      <trkpt lat="45.13171" lon="5.54981">
        <ele>1140.5</ele>
        <time>2022-07-08T13:05:04.738Z</time>
      </trkpt>
      <trkpt lat="45.13158" lon="5.54975">
        <ele>1140.9</ele>
        <time>2022-07-08T13:05:09.183Z</time>
      </trkpt>
      <trkpt lat="45.13148" lon="5.54973">
        <ele>1142.3</ele>
        <time>2022-07-08T13:05:18.453Z</time>
      </trkpt>
      <trkpt lat="45.13132" lon="5.54966">
        <ele>1142.5</ele>
        <time>2022-07-08T13:05:22.927Z</time>
      </trkpt>
      <trkpt lat="45.13125" lon="5.54956">
        <ele>1139.6</ele>
        <time>2022-07-08T13:05:23.950Z</time>
      </trkpt>
      <trkpt lat="45.13113" lon="5.54955">
        <ele>1140.9</ele>
        <time>2022-07-08T13:05:32.030Z</time>
      </trkpt>
      <trkpt lat="45.13102" lon="5.54957">
        <ele>1143.3</ele>
        <time>2022-07-08T13:05:42.210Z</time>
      </trkpt>
      <trkpt lat="45.13085" lon="5.54958">
        <ele>1146.1</ele>
        <time>2022-07-08T13:05:57.827Z</time>
      </trkpt>
      <trkpt lat="45.13075" lon="5.5497">
        <ele>1152.6</ele>
        <time>2022-07-08T13:06:09.854Z</time>
      </trkpt>
      <trkpt lat="45.13068" lon="5.54987">
        <ele>1159.8</ele>
        <time>2022-07-08T13:06:22.600Z</time>
      </trkpt>
      <trkpt lat="45.13063" lon="5.54993">
        <ele>1162.6</ele>
        <time>2022-07-08T13:06:28.614Z</time>
      </trkpt>
      <trkpt lat="45.13058" lon="5.54999">
        <ele>1165.3</ele>
        <time>2022-07-08T13:06:34.627Z</time>
      </trkpt>
      <trkpt lat="45.13046" lon="5.54999">
        <ele>1167.4</ele>
        <time>2022-07-08T13:06:45.642Z</time>
      </trkpt>
      <trkpt lat="45.13037" lon="5.55">
        <ele>1169.3</ele>
        <time>2022-07-08T13:06:53.928Z</time>
      </trkpt>
      <trkpt lat="45.13025" lon="5.54999">
        <ele>1171.1</ele>
        <time>2022-07-08T13:07:04.962Z</time>
      </trkpt>
      <trkpt lat="45.13011" lon="5.55001">
        <ele>1173.7</ele>
        <time>2022-07-08T13:07:17.878Z</time>
      </trkpt>
      <trkpt lat="45.12994" lon="5.54992">
        <ele>1174</ele>
        <time>2022-07-08T13:07:22.967Z</time>
      </trkpt>
      <trkpt lat="45.12986" lon="5.54983">
        <ele>1173.1</ele>
        <time>2022-07-08T13:07:24.018Z</time>
      </trkpt>
      <trkpt lat="45.12979" lon="5.54979">
        <ele>1173.5</ele>
        <time>2022-07-08T13:07:27.221Z</time>
      </trkpt>
      <trkpt lat="45.12971" lon="5.54977">
        <ele>1174.6</ele>
        <time>2022-07-08T13:07:34.678Z</time>
      </trkpt>
      <trkpt lat="45.12963" lon="5.54972">
        <ele>1174.6</ele>
        <time>2022-07-08T13:07:36.758Z</time>
      </trkpt>
      <trkpt lat="45.12954" lon="5.54969">
        <ele>1175.3</ele>
        <time>2022-07-08T13:07:41.385Z</time>
      </trkpt>
      <trkpt lat="45.12945" lon="5.54965">
        <ele>1175.8</ele>
        <time>2022-07-08T13:07:45.389Z</time>
      </trkpt>
      <trkpt lat="45.12935" lon="5.54958">
        <ele>1175.8</ele>
        <time>2022-07-08T13:07:48.043Z</time>
      </trkpt>
      <trkpt lat="45.12924" lon="5.54953">
        <ele>1176.4</ele>
        <time>2022-07-08T13:07:52.912Z</time>
      </trkpt>
      <trkpt lat="45.12918" lon="5.54949">
        <ele>1176.2</ele>
        <time>2022-07-08T13:07:53.776Z</time>
      </trkpt>
      <trkpt lat="45.12909" lon="5.54944">
        <ele>1176.2</ele>
        <time>2022-07-08T13:07:56.076Z</time>
      </trkpt>
      <trkpt lat="45.12899" lon="5.5494">
        <ele>1176.6</ele>
        <time>2022-07-08T13:07:59.896Z</time>
      </trkpt>
      <trkpt lat="45.1289" lon="5.54937">
        <ele>1177.1</ele>
        <time>2022-07-08T13:08:03.848Z</time>
      </trkpt>
      <trkpt lat="45.12878" lon="5.54932">
        <ele>1176.9</ele>
        <time>2022-07-08T13:08:05.763Z</time>
      </trkpt>
      <trkpt lat="45.12863" lon="5.54935">
        <ele>1180</ele>
        <time>2022-07-08T13:08:19.668Z</time>
      </trkpt>
      <trkpt lat="45.12853" lon="5.54935">
        <ele>1180.6</ele>
        <time>2022-07-08T13:08:24.121Z</time>
      </trkpt>
      <trkpt lat="45.1284" lon="5.54937">
        <ele>1181.8</ele>
        <time>2022-07-08T13:08:31.612Z</time>
      </trkpt>
      <trkpt lat="45.12832" lon="5.54937">
        <ele>1182.1</ele>
        <time>2022-07-08T13:08:34.512Z</time>
      </trkpt>
      <trkpt lat="45.12825" lon="5.5494">
        <ele>1183.5</ele>
        <time>2022-07-08T13:08:41.224Z</time>
      </trkpt>
      <trkpt lat="45.12817" lon="5.54943">
        <ele>1185</ele>
        <time>2022-07-08T13:08:48.820Z</time>
      </trkpt>
      <trkpt lat="45.12809" lon="5.54947">
        <ele>1186.8</ele>
        <time>2022-07-08T13:08:56.607Z</time>
      </trkpt>
      <trkpt lat="45.12792" lon="5.54961">
        <ele>1192.2</ele>
        <time>2022-07-08T13:09:14.654Z</time>
      </trkpt>
      <trkpt lat="45.12783" lon="5.54968">
        <ele>1194.6</ele>
        <time>2022-07-08T13:09:24.077Z</time>
      </trkpt>
      <trkpt lat="45.12772" lon="5.54978">
        <ele>1198.1</ele>
        <time>2022-07-08T13:09:36.072Z</time>
      </trkpt>
      <trkpt lat="45.12763" lon="5.54988">
        <ele>1201.6</ele>
        <time>2022-07-08T13:09:46.569Z</time>
      </trkpt>
      <trkpt lat="45.12758" lon="5.55">
        <ele>1205.4</ele>
        <time>2022-07-08T13:09:55.594Z</time>
      </trkpt>
      <trkpt lat="45.12753" lon="5.55001">
        <ele>1206</ele>
        <time>2022-07-08T13:09:59.421Z</time>
      </trkpt>
      <trkpt lat="45.12748" lon="5.54991">
        <ele>1203.7</ele>
        <time>2022-07-08T13:10:00.311Z</time>
      </trkpt>
      <trkpt lat="45.12742" lon="5.5498">
        <ele>1201.6</ele>
        <time>2022-07-08T13:10:01.320Z</time>
      </trkpt>
      <trkpt lat="45.1274" lon="5.5497">
        <ele>1199.3</ele>
        <time>2022-07-08T13:10:02.075Z</time>
      </trkpt>
      <trkpt lat="45.12732" lon="5.54965">
        <ele>1199.6</ele>
        <time>2022-07-08T13:10:05.109Z</time>
      </trkpt>
      <trkpt lat="45.12722" lon="5.54962">
        <ele>1200.8</ele>
        <time>2022-07-08T13:10:12.726Z</time>
      </trkpt>
      <trkpt lat="45.12704" lon="5.54962">
        <ele>1204.7</ele>
        <time>2022-07-08T13:10:29.249Z</time>
      </trkpt>
      <trkpt lat="45.12693" lon="5.54965">
        <ele>1207.7</ele>
        <time>2022-07-08T13:10:39.531Z</time>
      </trkpt>
      <trkpt lat="45.12681" lon="5.54969">
        <ele>1210.3</ele>
        <time>2022-07-08T13:10:50.846Z</time>
      </trkpt>
      <trkpt lat="45.12667" lon="5.54976">
        <ele>1213.6</ele>
        <time>2022-07-08T13:11:04.473Z</time>
      </trkpt>
      <trkpt lat="45.12653" lon="5.54981">
        <ele>1215.9</ele>
        <time>2022-07-08T13:11:17.725Z</time>
      </trkpt>
      <trkpt lat="45.12645" lon="5.5498">
        <ele>1216.5</ele>
        <time>2022-07-08T13:11:21.712Z</time>
      </trkpt>
      <trkpt lat="45.12639" lon="5.54983">
        <ele>1217.5</ele>
        <time>2022-07-08T13:11:27.552Z</time>
      </trkpt>
      <trkpt lat="45.12625" lon="5.54986">
        <ele>1219</ele>
        <time>2022-07-08T13:11:36.853Z</time>
      </trkpt>
      <trkpt lat="45.1261" lon="5.5499">
        <ele>1220.6</ele>
        <time>2022-07-08T13:11:46.765Z</time>
      </trkpt>
      <trkpt lat="45.12594" lon="5.54998">
        <ele>1221.8</ele>
        <time>2022-07-08T13:11:54.934Z</time>
      </trkpt>
      <trkpt lat="45.12584" lon="5.5501">
        <ele>1223.4</ele>
        <time>2022-07-08T13:12:05.270Z</time>
      </trkpt>
      <trkpt lat="45.12573" lon="5.55027">
        <ele>1225.9</ele>
        <time>2022-07-08T13:12:20.208Z</time>
      </trkpt>
      <trkpt lat="45.12568" lon="5.55036">
        <ele>1227.3</ele>
        <time>2022-07-08T13:12:27.627Z</time>
      </trkpt>
      <trkpt lat="45.12562" lon="5.55044">
        <ele>1228.5</ele>
        <time>2022-07-08T13:12:35.188Z</time>
      </trkpt>
      <trkpt lat="45.12553" lon="5.55054">
        <ele>1229.7</ele>
        <time>2022-07-08T13:12:42.623Z</time>
      </trkpt>
      <trkpt lat="45.12544" lon="5.55062">
        <ele>1230.3</ele>
        <time>2022-07-08T13:12:47.239Z</time>
      </trkpt>
      <trkpt lat="45.12533" lon="5.55074">
        <ele>1231.2</ele>
        <time>2022-07-08T13:12:53.637Z</time>
      </trkpt>
      <trkpt lat="45.12525" lon="5.55085">
        <ele>1232.1</ele>
        <time>2022-07-08T13:12:59.445Z</time>
      </trkpt>
      <trkpt lat="45.12507" lon="5.55111">
        <ele>1233.2</ele>
        <time>2022-07-08T13:13:09.505Z</time>
      </trkpt>
      <trkpt lat="45.12491" lon="5.55124">
        <ele>1233.5</ele>
        <time>2022-07-08T13:13:14.662Z</time>
      </trkpt>
      <trkpt lat="45.1248" lon="5.55125">
        <ele>1233.5</ele>
        <time>2022-07-08T13:13:17.285Z</time>
      </trkpt>
      <trkpt lat="45.12471" lon="5.55069">
        <ele>1233.6</ele>
        <time>2022-07-08T13:13:27.152Z</time>
      </trkpt>
      <trkpt lat="45.12468" lon="5.55042">
        <ele>1233</ele>
        <time>2022-07-08T13:13:29.641Z</time>
      </trkpt>
      <trkpt lat="45.12435" lon="5.54995">
        <ele>1233.8</ele>
        <time>2022-07-08T13:13:42.842Z</time>
      </trkpt>
      <trkpt lat="45.12382" lon="5.54973">
        <ele>1235.6</ele>
        <time>2022-07-08T13:14:01.578Z</time>
      </trkpt>
      <trkpt lat="45.12297" lon="5.54943">
        <ele>1237.7</ele>
        <time>2022-07-08T13:14:28.289Z</time>
      </trkpt>
      <trkpt lat="45.12227" lon="5.54903">
        <ele>1236.2</ele>
        <time>2022-07-08T13:14:39.314Z</time>
      </trkpt>
      <trkpt lat="45.12196" lon="5.54888">
        <ele>1236.7</ele>
        <time>2022-07-08T13:14:48.377Z</time>
      </trkpt>
      <trkpt lat="45.12167" lon="5.54874">
        <ele>1238.8</ele>
        <time>2022-07-08T13:15:02.888Z</time>
      </trkpt>
      <trkpt lat="45.12145" lon="5.54861">
        <ele>1240.1</ele>
        <time>2022-07-08T13:15:13.110Z</time>
      </trkpt>
      <trkpt lat="45.12125" lon="5.54853">
        <ele>1241.3</ele>
        <time>2022-07-08T13:15:22.220Z</time>
      </trkpt>
      <trkpt lat="45.12103" lon="5.5485">
        <ele>1242.8</ele>
        <time>2022-07-08T13:15:32.636Z</time>
      </trkpt>
      <trkpt lat="45.12078" lon="5.54849">
        <ele>1243.9</ele>
        <time>2022-07-08T13:15:42.603Z</time>
      </trkpt>
      <trkpt lat="45.12057" lon="5.54849">
        <ele>1244.6</ele>
        <time>2022-07-08T13:15:49.797Z</time>
      </trkpt>
      <trkpt lat="45.12031" lon="5.54865">
        <ele>1247.2</ele>
        <time>2022-07-08T13:16:06.030Z</time>
      </trkpt>
      <trkpt lat="45.1199" lon="5.54889">
        <ele>1249.4</ele>
        <time>2022-07-08T13:16:24.439Z</time>
      </trkpt>
      <trkpt lat="45.11965" lon="5.54874">
        <ele>1249.3</ele>
        <time>2022-07-08T13:16:30.555Z</time>
      </trkpt>
      <trkpt lat="45.11957" lon="5.54846">
        <ele>1248.3</ele>
        <time>2022-07-08T13:16:32.918Z</time>
      </trkpt>
      <trkpt lat="45.11954" lon="5.54814">
        <ele>1246.3</ele>
        <time>2022-07-08T13:16:35.262Z</time>
      </trkpt>
      <trkpt lat="45.11943" lon="5.54788">
        <ele>1245.9</ele>
        <time>2022-07-08T13:16:38.431Z</time>
      </trkpt>
      <trkpt lat="45.11923" lon="5.54783">
        <ele>1247.1</ele>
        <time>2022-07-08T13:16:47.417Z</time>
      </trkpt>
      <trkpt lat="45.11904" lon="5.54782">
        <ele>1248.4</ele>
        <time>2022-07-08T13:16:56.411Z</time>
      </trkpt>
      <trkpt lat="45.11888" lon="5.54787">
        <ele>1250</ele>
        <time>2022-07-08T13:17:06.324Z</time>
      </trkpt>
      <trkpt lat="45.11868" lon="5.54796">
        <ele>1251</ele>
        <time>2022-07-08T13:17:14.923Z</time>
      </trkpt>
      <trkpt lat="45.11853" lon="5.54804">
        <ele>1251.8</ele>
        <time>2022-07-08T13:17:21.589Z</time>
      </trkpt>
      <trkpt lat="45.11829" lon="5.54815">
        <ele>1252.7</ele>
        <time>2022-07-08T13:17:30.506Z</time>
      </trkpt>
      <trkpt lat="45.1181" lon="5.54822">
        <ele>1253.2</ele>
        <time>2022-07-08T13:17:36.599Z</time>
      </trkpt>
      <trkpt lat="45.11787" lon="5.54829">
        <ele>1253.7</ele>
        <time>2022-07-08T13:17:43.550Z</time>
      </trkpt>
      <trkpt lat="45.11755" lon="5.54835">
        <ele>1255</ele>
        <time>2022-07-08T13:17:55.722Z</time>
      </trkpt>
      <trkpt lat="45.11732" lon="5.54837">
        <ele>1255.3</ele>
        <time>2022-07-08T13:18:01.948Z</time>
      </trkpt>
      <trkpt lat="45.11704" lon="5.54845">
        <ele>1256.3</ele>
        <time>2022-07-08T13:18:11.954Z</time>
      </trkpt>
      <trkpt lat="45.11672" lon="5.54858">
        <ele>1256</ele>
        <time>2022-07-08T13:18:17.528Z</time>
      </trkpt>
      <trkpt lat="45.11604" lon="5.54891">
        <ele>1255.3</ele>
        <time>2022-07-08T13:18:29.447Z</time>
      </trkpt>
      <trkpt lat="45.11585" lon="5.54893">
        <ele>1255.9</ele>
        <time>2022-07-08T13:18:35.819Z</time>
      </trkpt>
      <trkpt lat="45.11585" lon="5.54888">
        <ele>1255.9</ele>
        <time>2022-07-08T13:18:36.659Z</time>
      </trkpt>
      <trkpt lat="45.11585" lon="5.54887">
        <ele>1255.9</ele>
        <time>2022-07-08T13:18:36.827Z</time>
      </trkpt>
      <trkpt lat="45.11586" lon="5.54885">
        <ele>1255.8</ele>
        <time>2022-07-08T13:18:37.002Z</time>
      </trkpt>
      <trkpt lat="45.11565" lon="5.54867">
        <ele>1256.4</ele>
        <time>2022-07-08T13:18:44.527Z</time>
      </trkpt>
      <trkpt lat="45.11557" lon="5.54842">
        <ele>1256.8</ele>
        <time>2022-07-08T13:18:50.212Z</time>
      </trkpt>
      <trkpt lat="45.11546" lon="5.54837">
        <ele>1257.6</ele>
        <time>2022-07-08T13:18:55.713Z</time>
      </trkpt>
      <trkpt lat="45.1154" lon="5.54826">
        <ele>1257.7</ele>
        <time>2022-07-08T13:18:58.288Z</time>
      </trkpt>
      <trkpt lat="45.11535" lon="5.54818">
        <ele>1257.8</ele>
        <time>2022-07-08T13:19:00.331Z</time>
      </trkpt>
      <trkpt lat="45.11526" lon="5.54816">
        <ele>1258.5</ele>
        <time>2022-07-08T13:19:04.931Z</time>
      </trkpt>
      <trkpt lat="45.11516" lon="5.54817">
        <ele>1259.1</ele>
        <time>2022-07-08T13:19:09.390Z</time>
      </trkpt>
      <trkpt lat="45.11503" lon="5.54819">
        <ele>1259.8</ele>
        <time>2022-07-08T13:19:14.960Z</time>
      </trkpt>
      <trkpt lat="45.11489" lon="5.54815">
        <ele>1260.1</ele>
        <time>2022-07-08T13:19:19.168Z</time>
      </trkpt>
      <trkpt lat="45.11481" lon="5.54803">
        <ele>1260.7</ele>
        <time>2022-07-08T13:19:24.064Z</time>
      </trkpt>
      <trkpt lat="45.11471" lon="5.54794">
        <ele>1261.4</ele>
        <time>2022-07-08T13:19:29.306Z</time>
      </trkpt>
      <trkpt lat="45.11447" lon="5.54797">
        <ele>1261.3</ele>
        <time>2022-07-08T13:19:34.696Z</time>
      </trkpt>
      <trkpt lat="45.11421" lon="5.54784">
        <ele>1262.4</ele>
        <time>2022-07-08T13:19:45.036Z</time>
      </trkpt>
      <trkpt lat="45.11402" lon="5.54783">
        <ele>1262.7</ele>
        <time>2022-07-08T13:19:50.325Z</time>
      </trkpt>
      <trkpt lat="45.11387" lon="5.54773">
        <ele>1262.8</ele>
        <time>2022-07-08T13:19:54.501Z</time>
      </trkpt>
      <trkpt lat="45.11356" lon="5.54761">
        <ele>1261.2</ele>
        <time>2022-07-08T13:19:57.975Z</time>
      </trkpt>
      <trkpt lat="45.1133" lon="5.54763">
        <ele>1260.3</ele>
        <time>2022-07-08T13:20:01.219Z</time>
      </trkpt>
      <trkpt lat="45.11293" lon="5.54754">
        <ele>1257.4</ele>
        <time>2022-07-08T13:20:05.082Z</time>
      </trkpt>
      <trkpt lat="45.11237" lon="5.54751">
        <ele>1252.7</ele>
        <time>2022-07-08T13:20:10.849Z</time>
      </trkpt>
      <trkpt lat="45.11214" lon="5.54764">
        <ele>1252.3</ele>
        <time>2022-07-08T13:20:14.632Z</time>
      </trkpt>
      <trkpt lat="45.11196" lon="5.54769">
        <ele>1251.2</ele>
        <time>2022-07-08T13:20:16.453Z</time>
      </trkpt>
      <trkpt lat="45.11151" lon="5.54752">
        <ele>1246.7</ele>
        <time>2022-07-08T13:20:21.246Z</time>
      </trkpt>
      <trkpt lat="45.11114" lon="5.54744">
        <ele>1244.9</ele>
        <time>2022-07-08T13:20:25.352Z</time>
      </trkpt>
      <trkpt lat="45.11093" lon="5.54745">
        <ele>1244.6</ele>
        <time>2022-07-08T13:20:28.638Z</time>
      </trkpt>
      <trkpt lat="45.11059" lon="5.54743">
        <ele>1242.9</ele>
        <time>2022-07-08T13:20:32.311Z</time>
      </trkpt>
      <trkpt lat="45.11036" lon="5.54749">
        <ele>1242.4</ele>
        <time>2022-07-08T13:20:35.668Z</time>
      </trkpt>
      <trkpt lat="45.10981" lon="5.54748">
        <ele>1240.7</ele>
        <time>2022-07-08T13:20:42.782Z</time>
      </trkpt>
      <trkpt lat="45.10943" lon="5.54732">
        <ele>1238</ele>
        <time>2022-07-08T13:20:46.861Z</time>
      </trkpt>
      <trkpt lat="45.10909" lon="5.54739">
        <ele>1237.4</ele>
        <time>2022-07-08T13:20:52.026Z</time>
      </trkpt>
      <trkpt lat="45.10879" lon="5.54742">
        <ele>1235.9</ele>
        <time>2022-07-08T13:20:55.275Z</time>
      </trkpt>
      <trkpt lat="45.10854" lon="5.5473">
        <ele>1231.9</ele>
        <time>2022-07-08T13:20:57.991Z</time>
      </trkpt>
      <trkpt lat="45.10824" lon="5.54721">
        <ele>1226.7</ele>
        <time>2022-07-08T13:21:01.147Z</time>
      </trkpt>
      <trkpt lat="45.10799" lon="5.54719">
        <ele>1223.8</ele>
        <time>2022-07-08T13:21:03.723Z</time>
      </trkpt>
      <trkpt lat="45.10778" lon="5.54704">
        <ele>1219.1</ele>
        <time>2022-07-08T13:21:06.144Z</time>
      </trkpt>
      <trkpt lat="45.10744" lon="5.54691">
        <ele>1215.3</ele>
        <time>2022-07-08T13:21:09.768Z</time>
      </trkpt>
      <trkpt lat="45.10712" lon="5.54652">
        <ele>1208.9</ele>
        <time>2022-07-08T13:21:14.111Z</time>
      </trkpt>
      <trkpt lat="45.10668" lon="5.5463">
        <ele>1209.3</ele>
        <time>2022-07-08T13:21:26.161Z</time>
      </trkpt>
      <trkpt lat="45.10644" lon="5.54619">
        <ele>1209.2</ele>
        <time>2022-07-08T13:21:31.820Z</time>
      </trkpt>
      <trkpt lat="45.10642" lon="5.54594">
        <ele>1208.3</ele>
        <time>2022-07-08T13:21:33.725Z</time>
      </trkpt>
      <trkpt lat="45.10633" lon="5.54575">
        <ele>1208.2</ele>
        <time>2022-07-08T13:21:37.235Z</time>
      </trkpt>
      <trkpt lat="45.10627" lon="5.54545">
        <ele>1208.4</ele>
        <time>2022-07-08T13:21:42.948Z</time>
      </trkpt>
      <trkpt lat="45.10613" lon="5.54531">
        <ele>1208.9</ele>
        <time>2022-07-08T13:21:48.513Z</time>
      </trkpt>
      <trkpt lat="45.10604" lon="5.54513">
        <ele>1209.7</ele>
        <time>2022-07-08T13:21:55.051Z</time>
      </trkpt>
      <trkpt lat="45.10605" lon="5.54494">
        <ele>1210.3</ele>
        <time>2022-07-08T13:22:00.456Z</time>
      </trkpt>
      <trkpt lat="45.10592" lon="5.54472">
        <ele>1211.4</ele>
        <time>2022-07-08T13:22:09.128Z</time>
      </trkpt>
      <trkpt lat="45.10587" lon="5.54452">
        <ele>1211.7</ele>
        <time>2022-07-08T13:22:13.493Z</time>
      </trkpt>
      <trkpt lat="45.10575" lon="5.54436">
        <ele>1213.2</ele>
        <time>2022-07-08T13:22:22.870Z</time>
      </trkpt>
      <trkpt lat="45.10566" lon="5.54414">
        <ele>1214.9</ele>
        <time>2022-07-08T13:22:33.434Z</time>
      </trkpt>
      <trkpt lat="45.10552" lon="5.54385">
        <ele>1216.2</ele>
        <time>2022-07-08T13:22:43.919Z</time>
      </trkpt>
      <trkpt lat="45.10534" lon="5.54371">
        <ele>1217.7</ele>
        <time>2022-07-08T13:22:53.983Z</time>
      </trkpt>
      <trkpt lat="45.10523" lon="5.54367">
        <ele>1218.5</ele>
        <time>2022-07-08T13:22:59.440Z</time>
      </trkpt>
      <trkpt lat="45.10502" lon="5.54356">
        <ele>1219.7</ele>
        <time>2022-07-08T13:23:08.981Z</time>
      </trkpt>
      <trkpt lat="45.10484" lon="5.54353">
        <ele>1221</ele>
        <time>2022-07-08T13:23:17.774Z</time>
      </trkpt>
      <trkpt lat="45.10476" lon="5.54342">
        <ele>1221.6</ele>
        <time>2022-07-08T13:23:22.532Z</time>
      </trkpt>
      <trkpt lat="45.10465" lon="5.54339">
        <ele>1222.5</ele>
        <time>2022-07-08T13:23:28.350Z</time>
      </trkpt>
      <trkpt lat="45.10454" lon="5.54329">
        <ele>1223.3</ele>
        <time>2022-07-08T13:23:34.220Z</time>
      </trkpt>
      <trkpt lat="45.10444" lon="5.54316">
        <ele>1224</ele>
        <time>2022-07-08T13:23:39.926Z</time>
      </trkpt>
      <trkpt lat="45.10434" lon="5.54298">
        <ele>1225</ele>
        <time>2022-07-08T13:23:47.220Z</time>
      </trkpt>
      <trkpt lat="45.10428" lon="5.54279">
        <ele>1225.4</ele>
        <time>2022-07-08T13:23:51.878Z</time>
      </trkpt>
      <trkpt lat="45.10419" lon="5.54271">
        <ele>1226.4</ele>
        <time>2022-07-08T13:23:58.097Z</time>
      </trkpt>
      <trkpt lat="45.10404" lon="5.54264">
        <ele>1228.3</ele>
        <time>2022-07-08T13:24:10.281Z</time>
      </trkpt>
      <trkpt lat="45.10392" lon="5.5427">
        <ele>1229.9</ele>
        <time>2022-07-08T13:24:20.792Z</time>
      </trkpt>
      <trkpt lat="45.10383" lon="5.54252">
        <ele>1231.6</ele>
        <time>2022-07-08T13:24:31.375Z</time>
      </trkpt>
      <trkpt lat="45.10375" lon="5.5424">
        <ele>1232.7</ele>
        <time>2022-07-08T13:24:38.212Z</time>
      </trkpt>
      <trkpt lat="45.10367" lon="5.54238">
        <ele>1233.7</ele>
        <time>2022-07-08T13:24:44.700Z</time>
      </trkpt>
      <trkpt lat="45.10355" lon="5.54234">
        <ele>1235.1</ele>
        <time>2022-07-08T13:24:53.491Z</time>
      </trkpt>
      <trkpt lat="45.10347" lon="5.54221">
        <ele>1236</ele>
        <time>2022-07-08T13:24:59.498Z</time>
      </trkpt>
      <trkpt lat="45.10333" lon="5.54229">
        <ele>1237</ele>
        <time>2022-07-08T13:25:06.528Z</time>
      </trkpt>
      <trkpt lat="45.10318" lon="5.54236">
        <ele>1238.1</ele>
        <time>2022-07-08T13:25:14.071Z</time>
      </trkpt>
      <trkpt lat="45.10306" lon="5.54241">
        <ele>1239</ele>
        <time>2022-07-08T13:25:20.150Z</time>
      </trkpt>
      <trkpt lat="45.10295" lon="5.5424">
        <ele>1239.2</ele>
        <time>2022-07-08T13:25:23.296Z</time>
      </trkpt>
      <trkpt lat="45.10287" lon="5.54252">
        <ele>1239.6</ele>
        <time>2022-07-08T13:25:27.341Z</time>
      </trkpt>
      <trkpt lat="45.10199" lon="5.54286">
        <ele>1239</ele>
        <time>2022-07-08T13:25:47.060Z</time>
      </trkpt>
      <trkpt lat="45.1012" lon="5.54284">
        <ele>1238.4</ele>
        <time>2022-07-08T13:26:00.547Z</time>
      </trkpt>
      <trkpt lat="45.10077" lon="5.54277">
        <ele>1238.1</ele>
        <time>2022-07-08T13:26:09.859Z</time>
      </trkpt>
      <trkpt lat="45.10049" lon="5.54264">
        <ele>1239.3</ele>
        <time>2022-07-08T13:26:21.043Z</time>
      </trkpt>
      <trkpt lat="45.1002" lon="5.54252">
        <ele>1242.1</ele>
        <time>2022-07-08T13:26:38.494Z</time>
      </trkpt>
      <trkpt lat="45.09998" lon="5.5424">
        <ele>1243.4</ele>
        <time>2022-07-08T13:26:48.646Z</time>
      </trkpt>
      <trkpt lat="45.09981" lon="5.54238">
        <ele>1244.1</ele>
        <time>2022-07-08T13:26:55.150Z</time>
      </trkpt>
      <trkpt lat="45.09966" lon="5.54237">
        <ele>1244.7</ele>
        <time>2022-07-08T13:27:00.787Z</time>
      </trkpt>
      <trkpt lat="45.09952" lon="5.54238">
        <ele>1245.2</ele>
        <time>2022-07-08T13:27:05.741Z</time>
      </trkpt>
      <trkpt lat="45.0994" lon="5.54233">
        <ele>1245.8</ele>
        <time>2022-07-08T13:27:10.878Z</time>
      </trkpt>
      <trkpt lat="45.09928" lon="5.54229">
        <ele>1246.3</ele>
        <time>2022-07-08T13:27:15.545Z</time>
      </trkpt>
      <trkpt lat="45.09913" lon="5.54225">
        <ele>1247.2</ele>
        <time>2022-07-08T13:27:22.293Z</time>
      </trkpt>
      <trkpt lat="45.09902" lon="5.5422">
        <ele>1248.1</ele>
        <time>2022-07-08T13:27:28.176Z</time>
      </trkpt>
      <trkpt lat="45.0989" lon="5.54216">
        <ele>1249.1</ele>
        <time>2022-07-08T13:27:34.619Z</time>
      </trkpt>
      <trkpt lat="45.09879" lon="5.54214">
        <ele>1250</ele>
        <time>2022-07-08T13:27:40.417Z</time>
      </trkpt>
      <trkpt lat="45.09867" lon="5.54208">
        <ele>1251.1</ele>
        <time>2022-07-08T13:27:47.373Z</time>
      </trkpt>
      <trkpt lat="45.09858" lon="5.54205">
        <ele>1251.9</ele>
        <time>2022-07-08T13:27:52.431Z</time>
      </trkpt>
      <trkpt lat="45.09849" lon="5.54203">
        <ele>1252.9</ele>
        <time>2022-07-08T13:27:58.662Z</time>
      </trkpt>
      <trkpt lat="45.09837" lon="5.54201">
        <ele>1254.2</ele>
        <time>2022-07-08T13:28:06.737Z</time>
      </trkpt>
      <trkpt lat="45.09827" lon="5.54197">
        <ele>1256.2</ele>
        <time>2022-07-08T13:28:16.274Z</time>
      </trkpt>
      <trkpt lat="45.09817" lon="5.54193">
        <ele>1258.7</ele>
        <time>2022-07-08T13:28:25.812Z</time>
      </trkpt>
      <trkpt lat="45.098" lon="5.54192">
        <ele>1262.9</ele>
        <time>2022-07-08T13:28:41.430Z</time>
      </trkpt>
      <trkpt lat="45.09786" lon="5.54197">
        <ele>1266.3</ele>
        <time>2022-07-08T13:28:54.683Z</time>
      </trkpt>
      <trkpt lat="45.09771" lon="5.54203">
        <ele>1269.7</ele>
        <time>2022-07-08T13:29:08.989Z</time>
      </trkpt>
      <trkpt lat="45.09761" lon="5.54206">
        <ele>1272.2</ele>
        <time>2022-07-08T13:29:18.372Z</time>
      </trkpt>
      <trkpt lat="45.09752" lon="5.54209">
        <ele>1274.3</ele>
        <time>2022-07-08T13:29:26.859Z</time>
      </trkpt>
      <trkpt lat="45.09742" lon="5.54214">
        <ele>1276.1</ele>
        <time>2022-07-08T13:29:36.593Z</time>
      </trkpt>
      <trkpt lat="45.09731" lon="5.54217">
        <ele>1278.4</ele>
        <time>2022-07-08T13:29:46.875Z</time>
      </trkpt>
      <trkpt lat="45.09722" lon="5.54213">
        <ele>1281</ele>
        <time>2022-07-08T13:29:55.533Z</time>
      </trkpt>
      <trkpt lat="45.09709" lon="5.54214">
        <ele>1282.3</ele>
        <time>2022-07-08T13:30:03.578Z</time>
      </trkpt>
      <trkpt lat="45.09701" lon="5.54212">
        <ele>1283.4</ele>
        <time>2022-07-08T13:30:11.035Z</time>
      </trkpt>
      <trkpt lat="45.09691" lon="5.54213">
        <ele>1284.2</ele>
        <time>2022-07-08T13:30:16.218Z</time>
      </trkpt>
      <trkpt lat="45.09681" lon="5.54215">
        <ele>1284.7</ele>
        <time>2022-07-08T13:30:20.407Z</time>
      </trkpt>
      <trkpt lat="45.09669" lon="5.54211">
        <ele>1286</ele>
        <time>2022-07-08T13:30:28.464Z</time>
      </trkpt>
      <trkpt lat="45.0966" lon="5.5421">
        <ele>1286.6</ele>
        <time>2022-07-08T13:30:32.675Z</time>
      </trkpt>
      <trkpt lat="45.09652" lon="5.54207">
        <ele>1287.2</ele>
        <time>2022-07-08T13:30:36.714Z</time>
      </trkpt>
      <trkpt lat="45.09644" lon="5.54208">
        <ele>1287.4</ele>
        <time>2022-07-08T13:30:39.190Z</time>
      </trkpt>
      <trkpt lat="45.09636" lon="5.54211">
        <ele>1287.2</ele>
        <time>2022-07-08T13:30:40.341Z</time>
      </trkpt>
      <trkpt lat="45.09625" lon="5.54206">
        <ele>1287.8</ele>
        <time>2022-07-08T13:30:45.210Z</time>
      </trkpt>
      <trkpt lat="45.09616" lon="5.54202">
        <ele>1288.2</ele>
        <time>2022-07-08T13:30:48.880Z</time>
      </trkpt>
      <trkpt lat="45.09606" lon="5.54197">
        <ele>1288.9</ele>
        <time>2022-07-08T13:30:53.810Z</time>
      </trkpt>
      <trkpt lat="45.09601" lon="5.54194">
        <ele>1289.4</ele>
        <time>2022-07-08T13:30:56.930Z</time>
      </trkpt>
      <trkpt lat="45.09593" lon="5.54194">
        <ele>1289.7</ele>
        <time>2022-07-08T13:30:59.830Z</time>
      </trkpt>
      <trkpt lat="45.09583" lon="5.54192">
        <ele>1290.3</ele>
        <time>2022-07-08T13:31:04.308Z</time>
      </trkpt>
      <trkpt lat="45.09574" lon="5.5419">
        <ele>1290.9</ele>
        <time>2022-07-08T13:31:08.539Z</time>
      </trkpt>
      <trkpt lat="45.09562" lon="5.54186">
        <ele>1291.9</ele>
        <time>2022-07-08T13:31:14.982Z</time>
      </trkpt>
      <trkpt lat="45.09551" lon="5.54183">
        <ele>1292.9</ele>
        <time>2022-07-08T13:31:21.258Z</time>
      </trkpt>
      <trkpt lat="45.09541" lon="5.54181">
        <ele>1293.7</ele>
        <time>2022-07-08T13:31:26.455Z</time>
      </trkpt>
      <trkpt lat="45.09533" lon="5.54174">
        <ele>1295.4</ele>
        <time>2022-07-08T13:31:35.086Z</time>
      </trkpt>
      <trkpt lat="45.09524" lon="5.54172">
        <ele>1296.3</ele>
        <time>2022-07-08T13:31:40.658Z</time>
      </trkpt>
      <trkpt lat="45.09517" lon="5.54166">
        <ele>1297.9</ele>
        <time>2022-07-08T13:31:48.168Z</time>
      </trkpt>
      <trkpt lat="45.09507" lon="5.54161">
        <ele>1299.7</ele>
        <time>2022-07-08T13:31:57.902Z</time>
      </trkpt>
      <trkpt lat="45.09502" lon="5.54156">
        <ele>1301.1</ele>
        <time>2022-07-08T13:32:03.520Z</time>
      </trkpt>
      <trkpt lat="45.09495" lon="5.54153">
        <ele>1302.3</ele>
        <time>2022-07-08T13:32:10.233Z</time>
      </trkpt>
      <trkpt lat="45.09488" lon="5.54146">
        <ele>1304.3</ele>
        <time>2022-07-08T13:32:18.098Z</time>
      </trkpt>
      <trkpt lat="45.09481" lon="5.54139">
        <ele>1306.3</ele>
        <time>2022-07-08T13:32:25.963Z</time>
      </trkpt>
      <trkpt lat="45.09471" lon="5.5413">
        <ele>1309</ele>
        <time>2022-07-08T13:32:36.838Z</time>
      </trkpt>
      <trkpt lat="45.09466" lon="5.54118">
        <ele>1312.1</ele>
        <time>2022-07-08T13:32:45.867Z</time>
      </trkpt>
      <trkpt lat="45.09456" lon="5.54111">
        <ele>1314.8</ele>
        <time>2022-07-08T13:32:56.106Z</time>
      </trkpt>
      <trkpt lat="45.09448" lon="5.54101">
        <ele>1317.5</ele>
        <time>2022-07-08T13:33:05.899Z</time>
      </trkpt>
      <trkpt lat="45.09438" lon="5.54094">
        <ele>1319.3</ele>
        <time>2022-07-08T13:33:16.137Z</time>
      </trkpt>
      <trkpt lat="45.09426" lon="5.54095">
        <ele>1319.6</ele>
        <time>2022-07-08T13:33:19.846Z</time>
      </trkpt>
      <trkpt lat="45.09409" lon="5.54099">
        <ele>1319.5</ele>
        <time>2022-07-08T13:33:23.612Z</time>
      </trkpt>
      <trkpt lat="45.0939" lon="5.54103">
        <ele>1319.4</ele>
        <time>2022-07-08T13:33:27.845Z</time>
      </trkpt>
      <trkpt lat="45.09366" lon="5.54103">
        <ele>1320.3</ele>
        <time>2022-07-08T13:33:36.545Z</time>
      </trkpt>
      <trkpt lat="45.09345" lon="5.54104">
        <ele>1320.9</ele>
        <time>2022-07-08T13:33:43.316Z</time>
      </trkpt>
      <trkpt lat="45.09349" lon="5.54104">
        <ele>1320.7</ele>
        <time>2022-07-08T13:33:43.748Z</time>
      </trkpt>
      <trkpt lat="45.09349" lon="5.54097">
        <ele>1322</ele>
        <time>2022-07-08T13:33:48.284Z</time>
      </trkpt>
      <trkpt lat="45.09371" lon="5.54123">
        <ele>1316.1</ele>
        <time>2022-07-08T13:33:51.232Z</time>
      </trkpt>
      <trkpt lat="45.09414" lon="5.5417">
        <ele>1304.3</ele>
        <time>2022-07-08T13:33:56.821Z</time>
      </trkpt>
      <trkpt lat="45.09455" lon="5.54198">
        <ele>1296.5</ele>
        <time>2022-07-08T13:34:01.505Z</time>
      </trkpt>
      <trkpt lat="45.09493" lon="5.54217">
        <ele>1290.2</ele>
        <time>2022-07-08T13:34:05.652Z</time>
      </trkpt>
      <trkpt lat="45.09502" lon="5.54246">
        <ele>1284.7</ele>
        <time>2022-07-08T13:34:07.953Z</time>
      </trkpt>
      <trkpt lat="45.0951" lon="5.54284">
        <ele>1278.4</ele>
        <time>2022-07-08T13:34:10.834Z</time>
      </trkpt>
      <trkpt lat="45.09553" lon="5.54305">
        <ele>1274.1</ele>
        <time>2022-07-08T13:34:15.515Z</time>
      </trkpt>
      <trkpt lat="45.09574" lon="5.54332">
        <ele>1268.3</ele>
        <time>2022-07-08T13:34:18.433Z</time>
      </trkpt>
      <trkpt lat="45.09612" lon="5.54357">
        <ele>1262.9</ele>
        <time>2022-07-08T13:34:22.745Z</time>
      </trkpt>
      <trkpt lat="45.09633" lon="5.54386">
        <ele>1255.8</ele>
        <time>2022-07-08T13:34:25.762Z</time>
      </trkpt>
      <trkpt lat="45.09643" lon="5.54411">
        <ele>1249.2</ele>
        <time>2022-07-08T13:34:27.850Z</time>
      </trkpt>
      <trkpt lat="45.09648" lon="5.54447">
        <ele>1241</ele>
        <time>2022-07-08T13:34:30.515Z</time>
      </trkpt>
      <trkpt lat="45.09653" lon="5.54499">
        <ele>1228.7</ele>
        <time>2022-07-08T13:34:34.327Z</time>
      </trkpt>
      <trkpt lat="45.09655" lon="5.54537">
        <ele>1220.4</ele>
        <time>2022-07-08T13:34:37.096Z</time>
      </trkpt>
      <trkpt lat="45.09662" lon="5.54586">
        <ele>1208.6</ele>
        <time>2022-07-08T13:34:40.727Z</time>
      </trkpt>
      <trkpt lat="45.09659" lon="5.54624">
        <ele>1200</ele>
        <time>2022-07-08T13:34:43.505Z</time>
      </trkpt>
      <trkpt lat="45.09677" lon="5.54619">
        <ele>1200.7</ele>
        <time>2022-07-08T13:34:50.216Z</time>
      </trkpt>
      <trkpt lat="45.09692" lon="5.54631">
        <ele>1197.7</ele>
        <time>2022-07-08T13:34:51.988Z</time>
      </trkpt>
      <trkpt lat="45.09712" lon="5.5466">
        <ele>1191.3</ele>
        <time>2022-07-08T13:34:54.934Z</time>
      </trkpt>
      <trkpt lat="45.0974" lon="5.54691">
        <ele>1184.1</ele>
        <time>2022-07-08T13:34:58.591Z</time>
      </trkpt>
      <trkpt lat="45.0977" lon="5.54708">
        <ele>1179.1</ele>
        <time>2022-07-08T13:35:01.916Z</time>
      </trkpt>
      <trkpt lat="45.09782" lon="5.54734">
        <ele>1173.3</ele>
        <time>2022-07-08T13:35:04.172Z</time>
      </trkpt>
      <trkpt lat="45.09794" lon="5.54765">
        <ele>1165.4</ele>
        <time>2022-07-08T13:35:06.740Z</time>
      </trkpt>
      <trkpt lat="45.09784" lon="5.54795">
        <ele>1160.1</ele>
        <time>2022-07-08T13:35:09.150Z</time>
      </trkpt>
      <trkpt lat="45.09761" lon="5.54821">
        <ele>1155.3</ele>
        <time>2022-07-08T13:35:12.178Z</time>
      </trkpt>
      <trkpt lat="45.09735" lon="5.54842">
        <ele>1151.2</ele>
        <time>2022-07-08T13:35:15.258Z</time>
      </trkpt>
      <trkpt lat="45.09701" lon="5.54882">
        <ele>1142.3</ele>
        <time>2022-07-08T13:35:19.806Z</time>
      </trkpt>
      <trkpt lat="45.09713" lon="5.54893">
        <ele>1138.5</ele>
        <time>2022-07-08T13:35:21.277Z</time>
      </trkpt>
      <trkpt lat="45.0973" lon="5.5491">
        <ele>1132.1</ele>
        <time>2022-07-08T13:35:23.418Z</time>
      </trkpt>
      <trkpt lat="45.09717" lon="5.54954">
        <ele>1121.5</ele>
        <time>2022-07-08T13:35:26.883Z</time>
      </trkpt>
      <trkpt lat="45.0973" lon="5.54974">
        <ele>1114.8</ele>
        <time>2022-07-08T13:35:28.858Z</time>
      </trkpt>
      <trkpt lat="45.09749" lon="5.54969">
        <ele>1114</ele>
        <time>2022-07-08T13:35:31.112Z</time>
      </trkpt>
      <trkpt lat="45.0977" lon="5.54993">
        <ele>1105.6</ele>
        <time>2022-07-08T13:35:33.888Z</time>
      </trkpt>
      <trkpt lat="45.09761" lon="5.55023">
        <ele>1100.4</ele>
        <time>2022-07-08T13:35:36.256Z</time>
      </trkpt>
      <trkpt lat="45.09782" lon="5.55044">
        <ele>1093.5</ele>
        <time>2022-07-08T13:35:38.901Z</time>
      </trkpt>
      <trkpt lat="45.0977" lon="5.55089">
        <ele>1086.8</ele>
        <time>2022-07-08T13:35:42.396Z</time>
      </trkpt>
      <trkpt lat="45.09763" lon="5.55145">
        <ele>1076.8</ele>
        <time>2022-07-08T13:35:46.527Z</time>
      </trkpt>
      <trkpt lat="45.0976" lon="5.55179">
        <ele>1070.1</ele>
        <time>2022-07-08T13:35:49.016Z</time>
      </trkpt>
      <trkpt lat="45.09768" lon="5.55186">
        <ele>1067.7</ele>
        <time>2022-07-08T13:35:49.984Z</time>
      </trkpt>
      <trkpt lat="45.09776" lon="5.55212">
        <ele>1061.4</ele>
        <time>2022-07-08T13:35:52.044Z</time>
      </trkpt>
      <trkpt lat="45.09789" lon="5.55228">
        <ele>1055.8</ele>
        <time>2022-07-08T13:35:53.816Z</time>
      </trkpt>
      <trkpt lat="45.098" lon="5.55252">
        <ele>1049.4</ele>
        <time>2022-07-08T13:35:55.895Z</time>
      </trkpt>
      <trkpt lat="45.09794" lon="5.55277">
        <ele>1045.8</ele>
        <time>2022-07-08T13:35:57.813Z</time>
      </trkpt>
      <trkpt lat="45.09776" lon="5.55341">
        <ele>1035.4</ele>
        <time>2022-07-08T13:36:02.817Z</time>
      </trkpt>
      <trkpt lat="45.09786" lon="5.55407">
        <ele>1023.8</ele>
        <time>2022-07-08T13:36:07.721Z</time>
      </trkpt>
      <trkpt lat="45.09816" lon="5.5545">
        <ele>1016.6</ele>
        <time>2022-07-08T13:36:12.112Z</time>
      </trkpt>
      <trkpt lat="45.0986" lon="5.55494">
        <ele>1014.1</ele>
        <time>2022-07-08T13:36:18.110Z</time>
      </trkpt>
      <trkpt lat="45.09868" lon="5.55577">
        <ele>1012.6</ele>
        <time>2022-07-08T13:36:26.225Z</time>
      </trkpt>
      <trkpt lat="45.09864" lon="5.55646">
        <ele>1007.6</ele>
      </trkpt>
      <trkpt lat="45.09622" lon="5.55702">
        <ele>983</ele>
      </trkpt>
      <trkpt lat="45.09382" lon="5.55655">
        <ele>982.4</ele>
        <time>2022-07-08T13:37:14.121Z</time>
      </trkpt>
      <trkpt lat="45.09017" lon="5.5558">
        <ele>978.3</ele>
      </trkpt>
      <trkpt lat="45.0896" lon="5.557">
        <ele>982.1</ele>
      </trkpt>
      <trkpt lat="45.08811" lon="5.55574">
        <ele>981.4</ele>
      </trkpt>
      <trkpt lat="45.08683" lon="5.55518">
        <ele>980.4</ele>
        <time>2022-07-08T13:39:55.060Z</time>
      </trkpt>
      <trkpt lat="45.08572" lon="5.55475">
        <ele>979</ele>
      </trkpt>
      <trkpt lat="45.08458" lon="5.55511">
        <ele>980.4</ele>
      </trkpt>
      <trkpt lat="45.08463" lon="5.55595">
        <ele>983.8</ele>
        <time>2022-07-08T13:40:57.581Z</time>
      </trkpt>
      <trkpt lat="45.08472" lon="5.55664">
        <ele>986</ele>
      </trkpt>
      <trkpt lat="45.0839" lon="5.55698">
        <ele>1004.1</ele>
      </trkpt>
      <trkpt lat="45.08303" lon="5.55813">
        <ele>1017.1</ele>
        <time>2022-07-08T13:44:21.372Z</time>
      </trkpt>
      <trkpt lat="45.08055" lon="5.56096">
        <ele>1026</ele>
        <time>2022-07-08T13:46:03.237Z</time>
      </trkpt>
      <trkpt lat="45.0801" lon="5.56071">
        <ele>1027.2</ele>
      </trkpt>
      <trkpt lat="45.0796" lon="5.55977">
        <ele>1026.2</ele>
        <time>2022-07-08T13:46:33.093Z</time>
      </trkpt>
      <trkpt lat="45.07879" lon="5.56153">
        <ele>1029.5</ele>
      </trkpt>
      <trkpt lat="45.07798" lon="5.56385">
        <ele>1033</ele>
        <time>2022-07-08T13:48:10.105Z</time>
      </trkpt>
      <trkpt lat="45.07749" lon="5.56528">
        <ele>1035.9</ele>
      </trkpt>
      <trkpt lat="45.07719" lon="5.56513">
        <ele>1031.8</ele>
      </trkpt>
      <trkpt lat="45.07689" lon="5.56597">
        <ele>1033.8</ele>
      </trkpt>
      <trkpt lat="45.07645" lon="5.5662">
        <ele>1029.9</ele>
        <time>2022-07-08T13:48:45.641Z</time>
      </trkpt>
      <trkpt lat="45.07543" lon="5.56642">
        <ele>1016.5</ele>
      </trkpt>
      <trkpt lat="45.07493" lon="5.5659">
        <ele>1009.2</ele>
        <time>2022-07-08T13:49:01.434Z</time>
      </trkpt>
      <trkpt lat="45.07432" lon="5.56479">
        <ele>1018.3</ele>
      </trkpt>
      <trkpt lat="45.07339" lon="5.56426">
        <ele>1025.3</ele>
        <time>2022-07-08T13:50:44.209Z</time>
      </trkpt>
      <trkpt lat="45.07378" lon="5.56526">
        <ele>1033.8</ele>
      </trkpt>
      <trkpt lat="45.07295" lon="5.56576">
        <ele>1044.8</ele>
        <time>2022-07-08T13:52:29.496Z</time>
      </trkpt>
      <trkpt lat="45.072" lon="5.56607">
        <ele>1052.4</ele>
        <time>2022-07-08T13:53:19.160Z</time>
      </trkpt>
      <trkpt lat="45.0686" lon="5.56663">
        <ele>1079.7</ele>
        <time>2022-07-08T13:56:16.086Z</time>
      </trkpt>
      <trkpt lat="45.0679" lon="5.56702">
        <ele>1079</ele>
      </trkpt>
      <trkpt lat="45.06726" lon="5.56666">
        <ele>1085.4</ele>
      </trkpt>
      <trkpt lat="45.06598" lon="5.56686">
        <ele>1109.5</ele>
        <time>2022-07-08T13:59:23.190Z</time>
      </trkpt>
      <trkpt lat="45.06458" lon="5.56634">
        <ele>1131.4</ele>
      </trkpt>
      <trkpt lat="45.06367" lon="5.56666">
        <ele>1120.5</ele>
        <time>2022-07-08T14:00:37.099Z</time>
      </trkpt>
      <trkpt lat="45.06323" lon="5.56689">
        <ele>1116.4</ele>
      </trkpt>
      <trkpt lat="45.06244" lon="5.56672">
        <ele>1107.1</ele>
      </trkpt>
      <trkpt lat="45.06184" lon="5.56745">
        <ele>1116.6</ele>
      </trkpt>
      <trkpt lat="45.06172" lon="5.56734">
        <ele>1117.9</ele>
      </trkpt>
      <trkpt lat="45.0607" lon="5.5682">
        <ele>1135.7</ele>
      </trkpt>
      <trkpt lat="45.05877" lon="5.57094">
        <ele>1170.3</ele>
        <time>2022-07-08T14:06:57.872Z</time>
      </trkpt>
      <trkpt lat="45.05809" lon="5.5717">
        <ele>1179.1</ele>
      </trkpt>
      <trkpt lat="45.05868" lon="5.57593">
        <ele>1199.8</ele>
        <time>2022-07-08T14:10:10.617Z</time>
      </trkpt>
      <trkpt lat="45.05815" lon="5.57676">
        <ele>1210.5</ele>
      </trkpt>
      <trkpt lat="45.05738" lon="5.57749">
        <ele>1220.9</ele>
      </trkpt>
      <trkpt lat="45.05649" lon="5.57766">
        <ele>1229.4</ele>
      </trkpt>
      <trkpt lat="45.05621" lon="5.57786">
        <ele>1231.4</ele>
        <time>2022-07-08T14:13:19.281Z</time>
      </trkpt>
      <trkpt lat="45.05691" lon="5.57882">
        <ele>1239.6</ele>
      </trkpt>
      <trkpt lat="45.05806" lon="5.57827">
        <ele>1230.7</ele>
      </trkpt>
      <trkpt lat="45.05882" lon="5.57771">
        <ele>1235</ele>
      </trkpt>
      <trkpt lat="45.05938" lon="5.577">
        <ele>1242.8</ele>
      </trkpt>
      <trkpt lat="45.06013" lon="5.57544">
        <ele>1256.2</ele>
        <time>2022-07-08T14:16:26.407Z</time>
      </trkpt>
      <trkpt lat="45.06094" lon="5.57365">
        <ele>1259.9</ele>
      </trkpt>
      <trkpt lat="45.06088" lon="5.5753">
        <ele>1277</ele>
      </trkpt>
      <trkpt lat="45.06006" lon="5.57812">
        <ele>1282.6</ele>
        <time>2022-07-08T14:19:14.253Z</time>
      </trkpt>
      <trkpt lat="45.05897" lon="5.58015">
        <ele>1315.1</ele>
      </trkpt>
      <trkpt lat="45.05787" lon="5.58129">
        <ele>1326.5</ele>
      </trkpt>
      <trkpt lat="45.05665" lon="5.58191">
        <ele>1330.7</ele>
        <time>2022-07-08T14:25:54.999Z</time>
      </trkpt>
      <trkpt lat="45.05574" lon="5.58273">
        <ele>1354.7</ele>
      </trkpt>
      <trkpt lat="45.05508" lon="5.58339">
        <ele>1383.3</ele>
      </trkpt>
      <trkpt lat="45.05449" lon="5.58318">
        <ele>1388.3</ele>
      </trkpt>
      <trkpt lat="45.05368" lon="5.58434">
        <ele>1408.9</ele>
      </trkpt>
      <trkpt lat="45.05333" lon="5.58533">
        <ele>1428.8</ele>
        <time>2022-07-08T14:31:28.723Z</time>
      </trkpt>
      <trkpt lat="45.05303" lon="5.58657">
        <ele>1449.1</ele>
      </trkpt>
      <trkpt lat="45.0527" lon="5.58809">
        <ele>1463.2</ele>
      </trkpt>
      <trkpt lat="45.05327" lon="5.58907">
        <ele>1467.3</ele>
        <time>2022-07-08T14:35:07.575Z</time>
      </trkpt>
      <trkpt lat="45.05391" lon="5.59032">
        <ele>1474.6</ele>
      </trkpt>
      <trkpt lat="45.05498" lon="5.59096">
        <ele>1479.7</ele>
        <time>2022-07-08T14:36:42.291Z</time>
      </trkpt>
      <trkpt lat="45.0557" lon="5.59005">
        <ele>1481.8</ele>
        <time>2022-07-08T14:37:10.978Z</time>
      </trkpt>
      <trkpt lat="45.05744" lon="5.58895">
        <ele>1483.8</ele>
      </trkpt>
      <trkpt lat="45.05736" lon="5.59019">
        <ele>1495.5</ele>
        <time>2022-07-08T14:38:38.811Z</time>
      </trkpt>
      <trkpt lat="45.05729" lon="5.59078">
        <ele>1496.9</ele>
      </trkpt>
      <trkpt lat="45.0579" lon="5.5909">
        <ele>1495</ele>
      </trkpt>
      <trkpt lat="45.05879" lon="5.59012">
        <ele>1489.9</ele>
        <time>2022-07-08T14:38:55.857Z</time>
      </trkpt>
      <trkpt lat="45.06145" lon="5.58789">
        <ele>1490.1</ele>
        <time>2022-07-08T14:40:09.863Z</time>
      </trkpt>
      <trkpt lat="45.06313" lon="5.58578">
        <ele>1491.9</ele>
        <time>2022-07-08T14:41:07.541Z</time>
      </trkpt>
      <trkpt lat="45.06381" lon="5.5841">
        <ele>1483</ele>
      </trkpt>
      <trkpt lat="45.0649" lon="5.58458">
        <ele>1497.1</ele>
        <time>2022-07-08T14:42:09.210Z</time>
      </trkpt>
      <trkpt lat="45.06613" lon="5.58505">
        <ele>1495.2</ele>
      </trkpt>
      <trkpt lat="45.0671" lon="5.58655">
        <ele>1502.2</ele>
      </trkpt>
      <trkpt lat="45.06769" lon="5.58821">
        <ele>1503.7</ele>
        <time>2022-07-08T14:43:56.498Z</time>
      </trkpt>
      <trkpt lat="45.06813" lon="5.58964">
        <ele>1508.6</ele>
      </trkpt>
      <trkpt lat="45.0706" lon="5.59097">
        <ele>1511.7</ele>
        <time>2022-07-08T14:45:41.901Z</time>
      </trkpt>
      <trkpt lat="45.07063" lon="5.59411">
        <ele>1530.8</ele>
        <time>2022-07-08T14:47:42.798Z</time>
      </trkpt>
      <trkpt lat="45.07179" lon="5.59385">
        <ele>1552.1</ele>
        <time>2022-07-08T14:49:30.600Z</time>
      </trkpt>
      <trkpt lat="45.07211" lon="5.59374">
        <ele>1553.1</ele>
      </trkpt>
      <trkpt lat="45.07325" lon="5.59558">
        <ele>1551.4</ele>
        <time>2022-07-08T14:50:13.488Z</time>
      </trkpt>
      <trkpt lat="45.07337" lon="5.59681">
        <ele>1559.1</ele>
      </trkpt>
      <trkpt lat="45.07415" lon="5.59752">
        <ele>1549.3</ele>
        <time>2022-07-08T14:50:39.600Z</time>
      </trkpt>
      <trkpt lat="45.07493" lon="5.60054">
        <ele>1539.4</ele>
        <time>2022-07-08T14:51:05.544Z</time>
      </trkpt>
      <trkpt lat="45.07636" lon="5.60046">
        <ele>1541.6</ele>
        <time>2022-07-08T14:51:45.182Z</time>
      </trkpt>
      <trkpt lat="45.07769" lon="5.60078">
        <ele>1532.5</ele>
        <time>2022-07-08T14:51:59.065Z</time>
      </trkpt>
      <trkpt lat="45.07885" lon="5.60155">
        <ele>1525.2</ele>
      </trkpt>
      <trkpt lat="45.0798" lon="5.60181">
        <ele>1529.5</ele>
        <time>2022-07-08T14:52:34.333Z</time>
      </trkpt>
      <trkpt lat="45.08258" lon="5.60228">
        <ele>1533.9</ele>
        <time>2022-07-08T14:53:52.163Z</time>
      </trkpt>
      <trkpt lat="45.08366" lon="5.60258">
        <ele>1532.4</ele>
      </trkpt>
      <trkpt lat="45.0846" lon="5.60324">
        <ele>1530.3</ele>
        <time>2022-07-08T14:54:24.417Z</time>
      </trkpt>
      <trkpt lat="45.08515" lon="5.60441">
        <ele>1528.1</ele>
        <time>2022-07-08T14:54:38.535Z</time>
      </trkpt>
      <trkpt lat="45.08519" lon="5.60504">
        <ele>1528</ele>
      </trkpt>
      <trkpt lat="45.08581" lon="5.60528">
        <ele>1521.4</ele>
      </trkpt>
      <trkpt lat="45.08611" lon="5.60574">
        <ele>1524</ele>
        <time>2022-07-08T14:54:55.970Z</time>
      </trkpt>
      <trkpt lat="45.08475" lon="5.60661">
        <ele>1557</ele>
      </trkpt>
      <trkpt lat="45.08405" lon="5.60767">
        <ele>1579.8</ele>
        <time>2022-07-08T14:58:42.683Z</time>
      </trkpt>
      <trkpt lat="45.08294" lon="5.60955">
        <ele>1627.6</ele>
        <time>2022-07-08T15:01:21.512Z</time>
      </trkpt>
      <trkpt lat="45.0822" lon="5.61052">
        <ele>1678.8</ele>
        <time>2022-07-08T15:02:54.065Z</time>
      </trkpt>
      <trkpt lat="45.08246" lon="5.61082">
        <ele>1689.9</ele>
      </trkpt>
      <trkpt lat="45.08314" lon="5.61082">
        <ele>1699.7</ele>
      </trkpt>
      <trkpt lat="45.08334" lon="5.61178">
        <ele>1710.7</ele>
      </trkpt>
      <trkpt lat="45.08323" lon="5.61322">
        <ele>1733.6</ele>
        <time>2022-07-08T15:06:12.962Z</time>
      </trkpt>
      <trkpt lat="45.08084" lon="5.61367">
        <ele>1680.2</ele>
        <time>2022-07-08T15:06:35.434Z</time>
      </trkpt>
      <trkpt lat="45.08096" lon="5.61408">
        <ele>1660.3</ele>
      </trkpt>
      <trkpt lat="45.08019" lon="5.61438">
        <ele>1642.2</ele>
      </trkpt>
      <trkpt lat="45.07898" lon="5.61468">
        <ele>1616.9</ele>
      </trkpt>
      <trkpt lat="45.08111" lon="5.61566">
        <ele>1591.5</ele>
        <time>2022-07-08T15:06:44.926Z</time>
      </trkpt>
      <trkpt lat="45.08239" lon="5.61622">
        <ele>1556.3</ele>
      </trkpt>
      <trkpt lat="45.0819" lon="5.61781">
        <ele>1498.1</ele>
      </trkpt>
      <trkpt lat="45.08255" lon="5.61801">
        <ele>1481.4</ele>
        <time>2022-07-08T15:07:10.456Z</time>
      </trkpt>
      <trkpt lat="45.08287" lon="5.61889">
        <ele>1449.1</ele>
      </trkpt>
      <trkpt lat="45.08198" lon="5.62049">
        <ele>1373</ele>
      </trkpt>
      <trkpt lat="45.08261" lon="5.6215">
        <ele>1353.8</ele>
        <time>2022-07-08T15:07:33.140Z</time>
      </trkpt>
      <trkpt lat="45.08248" lon="5.62343">
        <ele>1283.4</ele>
      </trkpt>
      <trkpt lat="45.08201" lon="5.62401">
        <ele>1241.6</ele>
        <time>2022-07-08T15:07:49.311Z</time>
      </trkpt>
      <trkpt lat="45.08099" lon="5.62628">
        <ele>1197.5</ele>
        <time>2022-07-08T15:08:08.861Z</time>
      </trkpt>
      <trkpt lat="45.07976" lon="5.62655">
        <ele>1141.9</ele>
      </trkpt>
      <trkpt lat="45.07866" lon="5.62704">
        <ele>1090.8</ele>
      </trkpt>
      <trkpt lat="45.07863" lon="5.62601">
        <ele>1084.2</ele>
        <time>2022-07-08T15:08:34.107Z</time>
      </trkpt>
      <trkpt lat="45.07793" lon="5.62502">
        <ele>1025.1</ele>
      </trkpt>
      <trkpt lat="45.07717" lon="5.62464">
        <ele>989.7</ele>
        <time>2022-07-08T15:08:53.676Z</time>
      </trkpt>
      <trkpt lat="45.07719" lon="5.62689">
        <ele>930.9</ele>
      </trkpt>
      <trkpt lat="45.07769" lon="5.62901">
        <ele>910.2</ele>
      </trkpt>
      <trkpt lat="45.0784" lon="5.63084">
        <ele>901.1</ele>
      </trkpt>
      <trkpt lat="45.07879" lon="5.63457">
        <ele>821.6</ele>
        <time>2022-07-08T15:09:59.748Z</time>
      </trkpt>
      <trkpt lat="45.07808" lon="5.63406">
        <ele>789.4</ele>
      </trkpt>
      <trkpt lat="45.07779" lon="5.63474">
        <ele>760.8</ele>
        <time>2022-07-08T15:10:12.287Z</time>
      </trkpt>
      <trkpt lat="45.07735" lon="5.63521">
        <ele>724.9</ele>
      </trkpt>
      <trkpt lat="45.07619" lon="5.63401">
        <ele>659.6</ele>
        <time>2022-07-08T15:10:26.844Z</time>
      </trkpt>
      <trkpt lat="45.07559" lon="5.63597">
        <ele>603.3</ele>
        <time>2022-07-08T15:10:41.625Z</time>
      </trkpt>
      <trkpt lat="45.07549" lon="5.63693">
        <ele>579</ele>
      </trkpt>
      <trkpt lat="45.07499" lon="5.63785">
        <ele>531.4</ele>
        <time>2022-07-08T15:10:59.480Z</time>
      </trkpt>
      <trkpt lat="45.07502" lon="5.63845">
        <ele>510.9</ele>
      </trkpt>
      <trkpt lat="45.07457" lon="5.63951">
        <ele>456</ele>
      </trkpt>
      <trkpt lat="45.07251" lon="5.63796">
        <ele>423.1</ele>
      </trkpt>
      <trkpt lat="45.0719" lon="5.63781">
        <ele>425.7</ele>
        <time>2022-07-08T15:11:21.500Z</time>
      </trkpt>
    </trkseg>
  </trk>
</gpx>